<?xml version="1.0" encoding="UTF-8" standalone="no" ?>
<gpx xmlns="http://www.topografix.com/GPX/1/1" xmlns:xsi="http://www.w3.org/2001/XMLSchema-instance" xsi:schemaLocation="http://www.topografix.com/GPX/1/1 http://www.topografix.com/GPX/1/1/gpx.xsd" version="1.1" creator="VisuGPX - https://www.visugpx.com">
  <metadata>
    <name>Le desuus des gorges de Véroncle par Murs</name>
    <desc><![CDATA[Magnifique rando sur le dessus des gorges et au village de Murs.
Bonne randonnée.]]></desc>
  </metadata>
  <trk>
    <name><![CDATA[Circuit 2]]></name>
    <trkseg>
      <trkpt lat="43.928" lon="5.20832">
        <ele>453.64</ele>
        <time>2019-02-28T08:59:23Z</time>
      </trkpt>
      <trkpt lat="43.928" lon="5.20832">
        <ele>453.64</ele>
        <time>2019-02-28T08:59:24Z</time>
      </trkpt>
      <trkpt lat="43.92805" lon="5.2083">
        <ele>453.49</ele>
        <time>2019-02-28T08:59:48Z</time>
      </trkpt>
      <trkpt lat="43.92803" lon="5.20828">
        <ele>453.33</ele>
        <time>2019-02-28T09:00:02Z</time>
      </trkpt>
      <trkpt lat="43.92806" lon="5.20826">
        <ele>453.29</ele>
        <time>2019-02-28T09:00:21Z</time>
      </trkpt>
      <trkpt lat="43.92808" lon="5.20824">
        <ele>453.22</ele>
        <time>2019-02-28T09:00:31Z</time>
      </trkpt>
      <trkpt lat="43.92816" lon="5.20827">
        <ele>452.93</ele>
        <time>2019-02-28T09:00:40Z</time>
      </trkpt>
      <trkpt lat="43.92834" lon="5.20838">
        <ele>453.97</ele>
        <time>2019-02-28T09:00:56Z</time>
      </trkpt>
      <trkpt lat="43.92849" lon="5.20859">
        <ele>454.84</ele>
        <time>2019-02-28T09:01:11Z</time>
      </trkpt>
      <trkpt lat="43.92864" lon="5.20886">
        <ele>455.46</ele>
        <time>2019-02-28T09:01:29Z</time>
      </trkpt>
      <trkpt lat="43.92875" lon="5.20918">
        <ele>456.65</ele>
        <time>2019-02-28T09:01:47Z</time>
      </trkpt>
      <trkpt lat="43.92884" lon="5.20942">
        <ele>457.01</ele>
        <time>2019-02-28T09:02:01Z</time>
      </trkpt>
      <trkpt lat="43.92886" lon="5.20947">
        <ele>457.2</ele>
        <time>2019-02-28T09:02:04Z</time>
      </trkpt>
      <trkpt lat="43.92898" lon="5.20977">
        <ele>458.54</ele>
        <time>2019-02-28T09:02:22Z</time>
      </trkpt>
      <trkpt lat="43.92912" lon="5.21005">
        <ele>459.45</ele>
        <time>2019-02-28T09:02:41Z</time>
      </trkpt>
      <trkpt lat="43.9293" lon="5.21026">
        <ele>460.43</ele>
        <time>2019-02-28T09:02:57Z</time>
      </trkpt>
      <trkpt lat="43.92951" lon="5.21047">
        <ele>461.11</ele>
        <time>2019-02-28T09:03:16Z</time>
      </trkpt>
      <trkpt lat="43.92966" lon="5.21061">
        <ele>462.04</ele>
        <time>2019-02-28T09:03:30Z</time>
      </trkpt>
      <trkpt lat="43.92967" lon="5.21064">
        <ele>462.19</ele>
        <time>2019-02-28T09:03:32Z</time>
      </trkpt>
      <trkpt lat="43.92972" lon="5.21067">
        <ele>462.35</ele>
        <time>2019-02-28T09:03:36Z</time>
      </trkpt>
      <trkpt lat="43.92993" lon="5.21083">
        <ele>462.92</ele>
        <time>2019-02-28T09:03:53Z</time>
      </trkpt>
      <trkpt lat="43.93004" lon="5.21099">
        <ele>463.43</ele>
        <time>2019-02-28T09:04:06Z</time>
      </trkpt>
      <trkpt lat="43.93015" lon="5.21118">
        <ele>462.71</ele>
        <time>2019-02-28T09:04:23Z</time>
      </trkpt>
      <trkpt lat="43.93022" lon="5.21153">
        <ele>460.84</ele>
        <time>2019-02-28T09:04:45Z</time>
      </trkpt>
      <trkpt lat="43.93017" lon="5.21164">
        <ele>459.92</ele>
        <time>2019-02-28T09:04:52Z</time>
      </trkpt>
      <trkpt lat="43.93011" lon="5.21183">
        <ele>457.16</ele>
        <time>2019-02-28T09:05:09Z</time>
      </trkpt>
      <trkpt lat="43.9301" lon="5.21184">
        <ele>457.08</ele>
        <time>2019-02-28T09:05:10Z</time>
      </trkpt>
      <trkpt lat="43.93004" lon="5.21207">
        <ele>454</ele>
        <time>2019-02-28T09:05:29Z</time>
      </trkpt>
      <trkpt lat="43.93005" lon="5.21217">
        <ele>453.14</ele>
        <time>2019-02-28T09:05:59Z</time>
      </trkpt>
      <trkpt lat="43.93003" lon="5.21221">
        <ele>453.04</ele>
        <time>2019-02-28T09:06:19Z</time>
      </trkpt>
      <trkpt lat="43.92986" lon="5.21239">
        <ele>453.87</ele>
        <time>2019-02-28T09:06:36Z</time>
      </trkpt>
      <trkpt lat="43.92973" lon="5.21255">
        <ele>455.27</ele>
        <time>2019-02-28T09:06:50Z</time>
      </trkpt>
      <trkpt lat="43.92962" lon="5.21264">
        <ele>456.31</ele>
        <time>2019-02-28T09:07:02Z</time>
      </trkpt>
      <trkpt lat="43.92947" lon="5.21283">
        <ele>457.92</ele>
        <time>2019-02-28T09:07:20Z</time>
      </trkpt>
      <trkpt lat="43.92942" lon="5.21288">
        <ele>458.24</ele>
        <time>2019-02-28T09:07:24Z</time>
      </trkpt>
      <trkpt lat="43.92923" lon="5.21305">
        <ele>458.89</ele>
        <time>2019-02-28T09:07:39Z</time>
      </trkpt>
      <trkpt lat="43.92905" lon="5.21314">
        <ele>457.38</ele>
        <time>2019-02-28T09:07:54Z</time>
      </trkpt>
      <trkpt lat="43.92884" lon="5.21326">
        <ele>454.53</ele>
        <time>2019-02-28T09:08:10Z</time>
      </trkpt>
      <trkpt lat="43.92883" lon="5.21327">
        <ele>454.32</ele>
        <time>2019-02-28T09:08:11Z</time>
      </trkpt>
      <trkpt lat="43.92864" lon="5.2134">
        <ele>451.01</ele>
        <time>2019-02-28T09:08:26Z</time>
      </trkpt>
      <trkpt lat="43.92843" lon="5.21344">
        <ele>447.97</ele>
        <time>2019-02-28T09:08:43Z</time>
      </trkpt>
      <trkpt lat="43.92842" lon="5.21345">
        <ele>447.8</ele>
        <time>2019-02-28T09:08:44Z</time>
      </trkpt>
      <trkpt lat="43.9284" lon="5.21348">
        <ele>447.35</ele>
        <time>2019-02-28T09:08:47Z</time>
      </trkpt>
      <trkpt lat="43.92824" lon="5.21356">
        <ele>443.99</ele>
        <time>2019-02-28T09:09:02Z</time>
      </trkpt>
      <trkpt lat="43.92812" lon="5.21362">
        <ele>441.92</ele>
        <time>2019-02-28T09:09:12Z</time>
      </trkpt>
      <trkpt lat="43.92807" lon="5.21364">
        <ele>441.22</ele>
        <time>2019-02-28T09:09:16Z</time>
      </trkpt>
      <trkpt lat="43.92801" lon="5.21372">
        <ele>440.15</ele>
        <time>2019-02-28T09:09:22Z</time>
      </trkpt>
      <trkpt lat="43.92788" lon="5.21388">
        <ele>437.07</ele>
        <time>2019-02-28T09:09:37Z</time>
      </trkpt>
      <trkpt lat="43.92776" lon="5.21399">
        <ele>434.98</ele>
        <time>2019-02-28T09:09:49Z</time>
      </trkpt>
      <trkpt lat="43.9276" lon="5.21418">
        <ele>431.68</ele>
        <time>2019-02-28T09:10:06Z</time>
      </trkpt>
      <trkpt lat="43.92757" lon="5.21421">
        <ele>431.05</ele>
        <time>2019-02-28T09:10:09Z</time>
      </trkpt>
      <trkpt lat="43.92744" lon="5.21431">
        <ele>429.25</ele>
        <time>2019-02-28T09:10:20Z</time>
      </trkpt>
      <trkpt lat="43.92738" lon="5.2144">
        <ele>427.75</ele>
        <time>2019-02-28T09:10:27Z</time>
      </trkpt>
      <trkpt lat="43.92724" lon="5.2146">
        <ele>424.35</ele>
        <time>2019-02-28T09:10:43Z</time>
      </trkpt>
      <trkpt lat="43.92713" lon="5.21478">
        <ele>421.67</ele>
        <time>2019-02-28T09:10:57Z</time>
      </trkpt>
      <trkpt lat="43.92708" lon="5.21485">
        <ele>420.58</ele>
        <time>2019-02-28T09:11:02Z</time>
      </trkpt>
      <trkpt lat="43.92705" lon="5.21491">
        <ele>419.98</ele>
        <time>2019-02-28T09:11:06Z</time>
      </trkpt>
      <trkpt lat="43.92698" lon="5.21513">
        <ele>417</ele>
        <time>2019-02-28T09:11:22Z</time>
      </trkpt>
      <trkpt lat="43.92686" lon="5.21531">
        <ele>414.22</ele>
        <time>2019-02-28T09:11:38Z</time>
      </trkpt>
      <trkpt lat="43.92672" lon="5.21555">
        <ele>411.21</ele>
        <time>2019-02-28T09:11:55Z</time>
      </trkpt>
      <trkpt lat="43.92659" lon="5.21577">
        <ele>408.05</ele>
        <time>2019-02-28T09:12:11Z</time>
      </trkpt>
      <trkpt lat="43.92646" lon="5.216">
        <ele>405.3</ele>
        <time>2019-02-28T09:12:27Z</time>
      </trkpt>
      <trkpt lat="43.92643" lon="5.21603">
        <ele>404.89</ele>
        <time>2019-02-28T09:12:29Z</time>
      </trkpt>
      <trkpt lat="43.92641" lon="5.21609">
        <ele>404.21</ele>
        <time>2019-02-28T09:12:33Z</time>
      </trkpt>
      <trkpt lat="43.92633" lon="5.21634">
        <ele>401.33</ele>
        <time>2019-02-28T09:12:50Z</time>
      </trkpt>
      <trkpt lat="43.92624" lon="5.21659">
        <ele>398.28</ele>
        <time>2019-02-28T09:13:07Z</time>
      </trkpt>
      <trkpt lat="43.92621" lon="5.21665">
        <ele>397.31</ele>
        <time>2019-02-28T09:13:11Z</time>
      </trkpt>
      <trkpt lat="43.92612" lon="5.21675">
        <ele>395.77</ele>
        <time>2019-02-28T09:13:21Z</time>
      </trkpt>
      <trkpt lat="43.92593" lon="5.21699">
        <ele>392.45</ele>
        <time>2019-02-28T09:13:39Z</time>
      </trkpt>
      <trkpt lat="43.92577" lon="5.21718">
        <ele>390.01</ele>
        <time>2019-02-28T09:13:55Z</time>
      </trkpt>
      <trkpt lat="43.92565" lon="5.21741">
        <ele>387.42</ele>
        <time>2019-02-28T09:14:11Z</time>
      </trkpt>
      <trkpt lat="43.92559" lon="5.21758">
        <ele>385.26</ele>
        <time>2019-02-28T09:14:22Z</time>
      </trkpt>
      <trkpt lat="43.92547" lon="5.21767">
        <ele>383.3</ele>
        <time>2019-02-28T09:14:33Z</time>
      </trkpt>
      <trkpt lat="43.92533" lon="5.2179">
        <ele>380.09</ele>
        <time>2019-02-28T09:14:50Z</time>
      </trkpt>
      <trkpt lat="43.92524" lon="5.2181">
        <ele>377</ele>
        <time>2019-02-28T09:15:08Z</time>
      </trkpt>
      <trkpt lat="43.9252" lon="5.21831">
        <ele>373.97</ele>
        <time>2019-02-28T09:15:22Z</time>
      </trkpt>
      <trkpt lat="43.92517" lon="5.21851">
        <ele>371.04</ele>
        <time>2019-02-28T09:15:36Z</time>
      </trkpt>
      <trkpt lat="43.92516" lon="5.21852">
        <ele>370.82</ele>
        <time>2019-02-28T09:15:37Z</time>
      </trkpt>
      <trkpt lat="43.92512" lon="5.21863">
        <ele>369.4</ele>
        <time>2019-02-28T09:15:44Z</time>
      </trkpt>
      <trkpt lat="43.9251" lon="5.21875">
        <ele>367.72</ele>
        <time>2019-02-28T09:15:52Z</time>
      </trkpt>
      <trkpt lat="43.92507" lon="5.21891">
        <ele>365.91</ele>
        <time>2019-02-28T09:16:03Z</time>
      </trkpt>
      <trkpt lat="43.92497" lon="5.21907">
        <ele>363.82</ele>
        <time>2019-02-28T09:16:15Z</time>
      </trkpt>
      <trkpt lat="43.92484" lon="5.21932">
        <ele>361.11</ele>
        <time>2019-02-28T09:16:32Z</time>
      </trkpt>
      <trkpt lat="43.92467" lon="5.21948">
        <ele>358.43</ele>
        <time>2019-02-28T09:16:48Z</time>
      </trkpt>
      <trkpt lat="43.92467" lon="5.21949">
        <ele>358.27</ele>
        <time>2019-02-28T09:16:49Z</time>
      </trkpt>
      <trkpt lat="43.92453" lon="5.21975">
        <ele>355.4</ele>
        <time>2019-02-28T09:17:07Z</time>
      </trkpt>
      <trkpt lat="43.92437" lon="5.21995">
        <ele>352.87</ele>
        <time>2019-02-28T09:17:24Z</time>
      </trkpt>
      <trkpt lat="43.92423" lon="5.22011">
        <ele>350.12</ele>
        <time>2019-02-28T09:17:40Z</time>
      </trkpt>
      <trkpt lat="43.92422" lon="5.22013">
        <ele>349.82</ele>
        <time>2019-02-28T09:17:42Z</time>
      </trkpt>
      <trkpt lat="43.9242" lon="5.22019">
        <ele>349.18</ele>
        <time>2019-02-28T09:17:46Z</time>
      </trkpt>
      <trkpt lat="43.92416" lon="5.22034">
        <ele>347.58</ele>
        <time>2019-02-28T09:17:56Z</time>
      </trkpt>
      <trkpt lat="43.92418" lon="5.22061">
        <ele>344.88</ele>
        <time>2019-02-28T09:18:16Z</time>
      </trkpt>
      <trkpt lat="43.92411" lon="5.2208">
        <ele>341.86</ele>
        <time>2019-02-28T09:18:35Z</time>
      </trkpt>
      <trkpt lat="43.92406" lon="5.22103">
        <ele>339.09</ele>
        <time>2019-02-28T09:18:50Z</time>
      </trkpt>
      <trkpt lat="43.92401" lon="5.22117">
        <ele>337.43</ele>
        <time>2019-02-28T09:19:00Z</time>
      </trkpt>
      <trkpt lat="43.92398" lon="5.22128">
        <ele>336.21</ele>
        <time>2019-02-28T09:19:06Z</time>
      </trkpt>
      <trkpt lat="43.9239" lon="5.22156">
        <ele>333.02</ele>
        <time>2019-02-28T09:19:22Z</time>
      </trkpt>
      <trkpt lat="43.92387" lon="5.22163">
        <ele>332.13</ele>
        <time>2019-02-28T09:19:26Z</time>
      </trkpt>
      <trkpt lat="43.92379" lon="5.22188">
        <ele>328.74</ele>
        <time>2019-02-28T09:19:41Z</time>
      </trkpt>
      <trkpt lat="43.92379" lon="5.22218">
        <ele>325.91</ele>
        <time>2019-02-28T09:19:58Z</time>
      </trkpt>
      <trkpt lat="43.9238" lon="5.22226">
        <ele>324.54</ele>
        <time>2019-02-28T09:20:12Z</time>
      </trkpt>
      <trkpt lat="43.92378" lon="5.22229">
        <ele>324.65</ele>
        <time>2019-02-28T09:20:15Z</time>
      </trkpt>
      <trkpt lat="43.92376" lon="5.22232">
        <ele>324.67</ele>
        <time>2019-02-28T09:20:18Z</time>
      </trkpt>
      <trkpt lat="43.92375" lon="5.22239">
        <ele>324.29</ele>
        <time>2019-02-28T09:20:22Z</time>
      </trkpt>
      <trkpt lat="43.92374" lon="5.22247">
        <ele>323.73</ele>
        <time>2019-02-28T09:20:26Z</time>
      </trkpt>
      <trkpt lat="43.9236" lon="5.22272">
        <ele>320.42</ele>
        <time>2019-02-28T09:20:44Z</time>
      </trkpt>
      <trkpt lat="43.92344" lon="5.22291">
        <ele>317.37</ele>
        <time>2019-02-28T09:21:01Z</time>
      </trkpt>
      <trkpt lat="43.92334" lon="5.22313">
        <ele>314.63</ele>
        <time>2019-02-28T09:21:16Z</time>
      </trkpt>
      <trkpt lat="43.9232" lon="5.22338">
        <ele>312.81</ele>
        <time>2019-02-28T09:21:32Z</time>
      </trkpt>
      <trkpt lat="43.9231" lon="5.2236">
        <ele>311.38</ele>
        <time>2019-02-28T09:21:46Z</time>
      </trkpt>
      <trkpt lat="43.92303" lon="5.22373">
        <ele>310.29</ele>
        <time>2019-02-28T09:21:54Z</time>
      </trkpt>
      <trkpt lat="43.92284" lon="5.2239">
        <ele>307.32</ele>
        <time>2019-02-28T09:22:11Z</time>
      </trkpt>
      <trkpt lat="43.92278" lon="5.22394">
        <ele>306.4</ele>
        <time>2019-02-28T09:22:16Z</time>
      </trkpt>
      <trkpt lat="43.92274" lon="5.22399">
        <ele>305.66</ele>
        <time>2019-02-28T09:22:20Z</time>
      </trkpt>
      <trkpt lat="43.92254" lon="5.22413">
        <ele>302.45</ele>
        <time>2019-02-28T09:22:38Z</time>
      </trkpt>
      <trkpt lat="43.92238" lon="5.22426">
        <ele>299.46</ele>
        <time>2019-02-28T09:22:53Z</time>
      </trkpt>
      <trkpt lat="43.92221" lon="5.2243">
        <ele>296.35</ele>
        <time>2019-02-28T09:23:08Z</time>
      </trkpt>
      <trkpt lat="43.92208" lon="5.22433">
        <ele>293.56</ele>
        <time>2019-02-28T09:23:27Z</time>
      </trkpt>
      <trkpt lat="43.92202" lon="5.22433">
        <ele>293.3</ele>
        <time>2019-02-28T09:23:52Z</time>
      </trkpt>
      <trkpt lat="43.92194" lon="5.2244">
        <ele>292.01</ele>
        <time>2019-02-28T09:24:11Z</time>
      </trkpt>
      <trkpt lat="43.92187" lon="5.22449">
        <ele>290.49</ele>
        <time>2019-02-28T09:24:19Z</time>
      </trkpt>
      <trkpt lat="43.9218" lon="5.22457">
        <ele>288.85</ele>
        <time>2019-02-28T09:24:27Z</time>
      </trkpt>
      <trkpt lat="43.92161" lon="5.22469">
        <ele>285.59</ele>
        <time>2019-02-28T09:24:46Z</time>
      </trkpt>
      <trkpt lat="43.92147" lon="5.22476">
        <ele>282.98</ele>
        <time>2019-02-28T09:25:00Z</time>
      </trkpt>
      <trkpt lat="43.92133" lon="5.22487">
        <ele>280.82</ele>
        <time>2019-02-28T09:25:18Z</time>
      </trkpt>
      <trkpt lat="43.92116" lon="5.22498">
        <ele>278.3</ele>
        <time>2019-02-28T09:25:37Z</time>
      </trkpt>
      <trkpt lat="43.92098" lon="5.22515">
        <ele>275.57</ele>
        <time>2019-02-28T09:25:56Z</time>
      </trkpt>
      <trkpt lat="43.9208" lon="5.22529">
        <ele>272.79</ele>
        <time>2019-02-28T09:26:14Z</time>
      </trkpt>
      <trkpt lat="43.92066" lon="5.2254">
        <ele>270.32</ele>
        <time>2019-02-28T09:26:32Z</time>
      </trkpt>
      <trkpt lat="43.92049" lon="5.22554">
        <ele>267.51</ele>
        <time>2019-02-28T09:26:50Z</time>
      </trkpt>
      <trkpt lat="43.92035" lon="5.22566">
        <ele>264.6</ele>
        <time>2019-02-28T09:27:08Z</time>
      </trkpt>
      <trkpt lat="43.92015" lon="5.22577">
        <ele>261.39</ele>
        <time>2019-02-28T09:27:27Z</time>
      </trkpt>
      <trkpt lat="43.9201" lon="5.22579">
        <ele>260.97</ele>
        <time>2019-02-28T09:27:30Z</time>
      </trkpt>
      <trkpt lat="43.91995" lon="5.22589">
        <ele>258.51</ele>
        <time>2019-02-28T09:27:44Z</time>
      </trkpt>
      <trkpt lat="43.91982" lon="5.22602">
        <ele>256.23</ele>
        <time>2019-02-28T09:27:56Z</time>
      </trkpt>
      <trkpt lat="43.91966" lon="5.22612">
        <ele>253.72</ele>
        <time>2019-02-28T09:28:12Z</time>
      </trkpt>
      <trkpt lat="43.91947" lon="5.22624">
        <ele>250.76</ele>
        <time>2019-02-28T09:28:30Z</time>
      </trkpt>
      <trkpt lat="43.91928" lon="5.22639">
        <ele>247.75</ele>
        <time>2019-02-28T09:28:48Z</time>
      </trkpt>
      <trkpt lat="43.91907" lon="5.22649">
        <ele>244.57</ele>
        <time>2019-02-28T09:29:05Z</time>
      </trkpt>
      <trkpt lat="43.91893" lon="5.22659">
        <ele>242.42</ele>
        <time>2019-02-28T09:29:18Z</time>
      </trkpt>
      <trkpt lat="43.91885" lon="5.22672">
        <ele>240.04</ele>
        <time>2019-02-28T09:29:35Z</time>
      </trkpt>
      <trkpt lat="43.9188" lon="5.22678">
        <ele>239.8</ele>
        <time>2019-02-28T09:29:45Z</time>
      </trkpt>
      <trkpt lat="43.91867" lon="5.22686">
        <ele>238.64</ele>
        <time>2019-02-28T09:30:02Z</time>
      </trkpt>
      <trkpt lat="43.91864" lon="5.22688">
        <ele>238.33</ele>
        <time>2019-02-28T09:30:05Z</time>
      </trkpt>
      <trkpt lat="43.91863" lon="5.22689">
        <ele>238.02</ele>
        <time>2019-02-28T09:30:07Z</time>
      </trkpt>
      <trkpt lat="43.91851" lon="5.22695">
        <ele>236.7</ele>
        <time>2019-02-28T09:30:22Z</time>
      </trkpt>
      <trkpt lat="43.91836" lon="5.22704">
        <ele>235.37</ele>
        <time>2019-02-28T09:30:35Z</time>
      </trkpt>
      <trkpt lat="43.9182" lon="5.22708">
        <ele>233.17</ele>
        <time>2019-02-28T09:30:49Z</time>
      </trkpt>
      <trkpt lat="43.91795" lon="5.22708">
        <ele>230.48</ele>
        <time>2019-02-28T09:31:09Z</time>
      </trkpt>
      <trkpt lat="43.91779" lon="5.22715">
        <ele>227.43</ele>
        <time>2019-02-28T09:31:25Z</time>
      </trkpt>
      <trkpt lat="43.91773" lon="5.22718">
        <ele>226.82</ele>
        <time>2019-02-28T09:31:30Z</time>
      </trkpt>
      <trkpt lat="43.91769" lon="5.22722">
        <ele>225.98</ele>
        <time>2019-02-28T09:31:34Z</time>
      </trkpt>
      <trkpt lat="43.91751" lon="5.22733">
        <ele>223.37</ele>
        <time>2019-02-28T09:31:49Z</time>
      </trkpt>
      <trkpt lat="43.91733" lon="5.22738">
        <ele>220.98</ele>
        <time>2019-02-28T09:32:04Z</time>
      </trkpt>
      <trkpt lat="43.91715" lon="5.22748">
        <ele>217.95</ele>
        <time>2019-02-28T09:32:21Z</time>
      </trkpt>
      <trkpt lat="43.91698" lon="5.22757">
        <ele>214.97</ele>
        <time>2019-02-28T09:32:37Z</time>
      </trkpt>
      <trkpt lat="43.91687" lon="5.22765">
        <ele>213.04</ele>
        <time>2019-02-28T09:32:49Z</time>
      </trkpt>
      <trkpt lat="43.91672" lon="5.22773">
        <ele>210.68</ele>
        <time>2019-02-28T09:33:04Z</time>
      </trkpt>
      <trkpt lat="43.91659" lon="5.2278">
        <ele>207.91</ele>
        <time>2019-02-28T09:33:20Z</time>
      </trkpt>
      <trkpt lat="43.91642" lon="5.22788">
        <ele>204.85</ele>
        <time>2019-02-28T09:33:39Z</time>
      </trkpt>
      <trkpt lat="43.91626" lon="5.22793">
        <ele>201.73</ele>
        <time>2019-02-28T09:33:57Z</time>
      </trkpt>
      <trkpt lat="43.91617" lon="5.22808">
        <ele>200.9</ele>
        <time>2019-02-28T09:34:14Z</time>
      </trkpt>
      <trkpt lat="43.91605" lon="5.2282">
        <ele>200.88</ele>
        <time>2019-02-28T09:34:15Z</time>
      </trkpt>
      <trkpt lat="43.91582" lon="5.22842">
        <ele>200.19</ele>
        <time>2019-02-28T09:34:27Z</time>
      </trkpt>
      <trkpt lat="43.91573" lon="5.22846">
        <ele>199.68</ele>
        <time>2019-02-28T09:34:49Z</time>
      </trkpt>
      <trkpt lat="43.91603" lon="5.22897">
        <ele>199.39</ele>
        <time>2019-02-28T09:35:08Z</time>
      </trkpt>
      <trkpt lat="43.91654" lon="5.22893">
        <ele>200.31</ele>
        <time>2019-02-28T09:35:30Z</time>
      </trkpt>
      <trkpt lat="43.91659" lon="5.22907">
        <ele>199.65</ele>
        <time>2019-02-28T09:35:49Z</time>
      </trkpt>
      <trkpt lat="43.91662" lon="5.22949">
        <ele>201.01</ele>
        <time>2019-02-28T09:36:08Z</time>
      </trkpt>
      <trkpt lat="43.91683" lon="5.23021">
        <ele>201.71</ele>
        <time>2019-02-28T09:36:13Z</time>
      </trkpt>
      <trkpt lat="43.91721" lon="5.23086">
        <ele>201.34</ele>
        <time>2019-02-28T09:36:41Z</time>
      </trkpt>
      <trkpt lat="43.91742" lon="5.23114">
        <ele>201.89</ele>
        <time>2019-02-28T09:37:22Z</time>
      </trkpt>
      <trkpt lat="43.91757" lon="5.23121">
        <ele>201.78</ele>
        <time>2019-02-28T09:37:50Z</time>
      </trkpt>
      <trkpt lat="43.9178" lon="5.23146">
        <ele>202.43</ele>
        <time>2019-02-28T09:38:09Z</time>
      </trkpt>
      <trkpt lat="43.91788" lon="5.23172">
        <ele>202.49</ele>
        <time>2019-02-28T09:38:31Z</time>
      </trkpt>
      <trkpt lat="43.91815" lon="5.2318">
        <ele>202.87</ele>
        <time>2019-02-28T09:38:50Z</time>
      </trkpt>
      <trkpt lat="43.91856" lon="5.23226">
        <ele>205.48</ele>
        <time>2019-02-28T09:39:14Z</time>
      </trkpt>
      <trkpt lat="43.91937" lon="5.23303">
        <ele>203.62</ele>
        <time>2019-02-28T09:39:31Z</time>
      </trkpt>
      <trkpt lat="43.91977" lon="5.23327">
        <ele>202.43</ele>
        <time>2019-02-28T09:39:36Z</time>
      </trkpt>
      <trkpt lat="43.92001" lon="5.23327">
        <ele>200.8</ele>
        <time>2019-02-28T09:39:57Z</time>
      </trkpt>
      <trkpt lat="43.92006" lon="5.23341">
        <ele>241.984375</ele>
      </trkpt>
      <trkpt lat="43.92011" lon="5.23359">
        <ele>241.80859375</ele>
      </trkpt>
      <trkpt lat="43.92018" lon="5.23367">
        <ele>242.27734375</ele>
      </trkpt>
      <trkpt lat="43.92035" lon="5.23375">
        <ele>243.80078125</ele>
      </trkpt>
      <trkpt lat="43.92053" lon="5.23378">
        <ele>245.5078125</ele>
      </trkpt>
      <trkpt lat="43.92064" lon="5.2338">
        <ele>246.4453125</ele>
      </trkpt>
      <trkpt lat="43.92066" lon="5.234">
        <ele>245.95703125</ele>
      </trkpt>
      <trkpt lat="43.92067" lon="5.23406">
        <ele>245.82421875</ele>
      </trkpt>
      <trkpt lat="43.92079" lon="5.23409">
        <ele>246.76171875</ele>
      </trkpt>
      <trkpt lat="43.92084" lon="5.2342">
        <ele>246.94140625</ele>
      </trkpt>
      <trkpt lat="43.92111" lon="5.23447">
        <ele>198.73</ele>
        <time>2019-02-28T09:40:08Z</time>
      </trkpt>
      <trkpt lat="43.92188" lon="5.23502">
        <ele>197.92</ele>
        <time>2019-02-28T09:40:26Z</time>
      </trkpt>
      <trkpt lat="43.92218" lon="5.23524">
        <ele>254.3359375</ele>
      </trkpt>
      <trkpt lat="43.92229" lon="5.23544">
        <ele>254.984375</ele>
      </trkpt>
      <trkpt lat="43.92286" lon="5.23555">
        <ele>262.3125</ele>
      </trkpt>
      <trkpt lat="43.92304" lon="5.23571">
        <ele>264.8203125</ele>
      </trkpt>
      <trkpt lat="43.92328" lon="5.23598">
        <ele>268.62890625</ele>
      </trkpt>
      <trkpt lat="43.92349" lon="5.23616">
        <ele>273.50390625</ele>
      </trkpt>
      <trkpt lat="43.92366" lon="5.23623">
        <ele>277.76953125</ele>
      </trkpt>
      <trkpt lat="43.92371" lon="5.23623">
        <ele>279.01953125</ele>
      </trkpt>
      <trkpt lat="43.92387" lon="5.23628">
        <ele>283.9765625</ele>
      </trkpt>
      <trkpt lat="43.92404" lon="5.23665">
        <ele>290.3046875</ele>
      </trkpt>
      <trkpt lat="43.92408" lon="5.23694">
        <ele>291.93359375</ele>
      </trkpt>
      <trkpt lat="43.92406" lon="5.23704">
        <ele>291.46484375</ele>
      </trkpt>
      <trkpt lat="43.92413" lon="5.23718">
        <ele>294.12109375</ele>
      </trkpt>
      <trkpt lat="43.92415" lon="5.23727">
        <ele>294.75</ele>
      </trkpt>
      <trkpt lat="43.92424" lon="5.23728">
        <ele>298.23046875</ele>
      </trkpt>
      <trkpt lat="43.92432" lon="5.23734">
        <ele>300.84375</ele>
      </trkpt>
      <trkpt lat="43.92438" lon="5.23738">
        <ele>302.52734375</ele>
      </trkpt>
      <trkpt lat="43.9245" lon="5.23718">
        <ele>304.70703125</ele>
      </trkpt>
      <trkpt lat="43.92459" lon="5.2372">
        <ele>306.234375</ele>
      </trkpt>
      <trkpt lat="43.92463" lon="5.23723">
        <ele>306.91015625</ele>
      </trkpt>
      <trkpt lat="43.92474" lon="5.23724">
        <ele>308.86328125</ele>
      </trkpt>
      <trkpt lat="43.92493" lon="5.23722">
        <ele>311.953125</ele>
      </trkpt>
      <trkpt lat="43.92503" lon="5.23711">
        <ele>313.421875</ele>
      </trkpt>
      <trkpt lat="43.92515" lon="5.23698">
        <ele>315.16796875</ele>
      </trkpt>
      <trkpt lat="43.92584" lon="5.23638">
        <ele>201.66</ele>
        <time>2019-02-28T09:42:10Z</time>
      </trkpt>
      <trkpt lat="43.92597" lon="5.23625">
        <ele>324.796875</ele>
      </trkpt>
      <trkpt lat="43.92642" lon="5.23638">
        <ele>327.23046875</ele>
      </trkpt>
      <trkpt lat="43.92676" lon="5.23641">
        <ele>329.64453125</ele>
      </trkpt>
      <trkpt lat="43.92742" lon="5.23698">
        <ele>332.2109375</ele>
      </trkpt>
      <trkpt lat="43.9276" lon="5.23718">
        <ele>332.48046875</ele>
      </trkpt>
      <trkpt lat="43.9282" lon="5.23643">
        <ele>343.64453125</ele>
      </trkpt>
      <trkpt lat="43.92873" lon="5.23569">
        <ele>356.48046875</ele>
      </trkpt>
      <trkpt lat="43.92972" lon="5.2349">
        <ele>361.1640625</ele>
      </trkpt>
      <trkpt lat="43.93012" lon="5.2346">
        <ele>366.53515625</ele>
      </trkpt>
      <trkpt lat="43.9304" lon="5.23431">
        <ele>370.546875</ele>
      </trkpt>
      <trkpt lat="43.93049" lon="5.23407">
        <ele>373.0859375</ele>
      </trkpt>
      <trkpt lat="43.93054" lon="5.23403">
        <ele>373.75</ele>
      </trkpt>
      <trkpt lat="43.93071" lon="5.23368">
        <ele>377.51953125</ele>
      </trkpt>
      <trkpt lat="43.93098" lon="5.23322">
        <ele>383.1015625</ele>
      </trkpt>
      <trkpt lat="43.93126" lon="5.23297">
        <ele>387.421875</ele>
      </trkpt>
      <trkpt lat="43.93142" lon="5.23281">
        <ele>390.2265625</ele>
      </trkpt>
      <trkpt lat="43.93142" lon="5.23237">
        <ele>393.40234375</ele>
      </trkpt>
      <trkpt lat="43.9314" lon="5.23229">
        <ele>393.921875</ele>
      </trkpt>
      <trkpt lat="43.93143" lon="5.23205">
        <ele>396.08984375</ele>
      </trkpt>
      <trkpt lat="43.93154" lon="5.23163">
        <ele>400.171875</ele>
      </trkpt>
      <trkpt lat="43.93135" lon="5.23073">
        <ele>406.203125</ele>
      </trkpt>
      <trkpt lat="43.93133" lon="5.23066">
        <ele>406.6484375</ele>
      </trkpt>
      <trkpt lat="43.93129" lon="5.23051">
        <ele>407.6328125</ele>
      </trkpt>
      <trkpt lat="43.93197" lon="5.23015">
        <ele>415.84765625</ele>
      </trkpt>
      <trkpt lat="43.93234" lon="5.23">
        <ele>420.8203125</ele>
      </trkpt>
      <trkpt lat="43.93269" lon="5.23007">
        <ele>423.89453125</ele>
      </trkpt>
      <trkpt lat="43.9331" lon="5.22989">
        <ele>429.94921875</ele>
      </trkpt>
      <trkpt lat="43.9331" lon="5.22947">
        <ele>432.46875</ele>
      </trkpt>
      <trkpt lat="43.9334" lon="5.22928">
        <ele>436.1875</ele>
      </trkpt>
      <trkpt lat="43.93353" lon="5.22911">
        <ele>438.296875</ele>
      </trkpt>
      <trkpt lat="43.93415" lon="5.22824">
        <ele>447.27734375</ele>
      </trkpt>
      <trkpt lat="43.93455" lon="5.22797">
        <ele>451.296875</ele>
      </trkpt>
      <trkpt lat="43.93521" lon="5.22769">
        <ele>457.69140625</ele>
      </trkpt>
      <trkpt lat="43.93569" lon="5.22744">
        <ele>462.859375</ele>
      </trkpt>
      <trkpt lat="43.93588" lon="5.22669">
        <ele>467.08984375</ele>
      </trkpt>
      <trkpt lat="43.93596" lon="5.22638">
        <ele>469.109375</ele>
      </trkpt>
      <trkpt lat="43.93615" lon="5.22597">
        <ele>472.0625</ele>
      </trkpt>
      <trkpt lat="43.93623" lon="5.22587">
        <ele>470.1</ele>
        <time>2019-02-28T11:27:31Z</time>
      </trkpt>
      <trkpt lat="43.93633" lon="5.22585">
        <ele>470.83</ele>
        <time>2019-02-28T11:27:38Z</time>
      </trkpt>
      <trkpt lat="43.93648" lon="5.22578">
        <ele>471.17</ele>
        <time>2019-02-28T11:27:47Z</time>
      </trkpt>
      <trkpt lat="43.93672" lon="5.22569">
        <ele>472.38</ele>
        <time>2019-02-28T11:28:04Z</time>
      </trkpt>
      <trkpt lat="43.93692" lon="5.2256">
        <ele>473.79</ele>
        <time>2019-02-28T11:28:18Z</time>
      </trkpt>
      <trkpt lat="43.93717" lon="5.22553">
        <ele>475.29</ele>
        <time>2019-02-28T11:28:36Z</time>
      </trkpt>
      <trkpt lat="43.93736" lon="5.22552">
        <ele>477.82</ele>
        <time>2019-02-28T11:28:51Z</time>
      </trkpt>
      <trkpt lat="43.93755" lon="5.22553">
        <ele>478.8</ele>
        <time>2019-02-28T11:29:06Z</time>
      </trkpt>
      <trkpt lat="43.93775" lon="5.22553">
        <ele>481.08</ele>
        <time>2019-02-28T11:29:22Z</time>
      </trkpt>
      <trkpt lat="43.93798" lon="5.22558">
        <ele>483.09</ele>
        <time>2019-02-28T11:29:39Z</time>
      </trkpt>
      <trkpt lat="43.93819" lon="5.22569">
        <ele>484.81</ele>
        <time>2019-02-28T11:29:55Z</time>
      </trkpt>
      <trkpt lat="43.93838" lon="5.22585">
        <ele>486.3</ele>
        <time>2019-02-28T11:30:12Z</time>
      </trkpt>
      <trkpt lat="43.93857" lon="5.22605">
        <ele>487.08</ele>
        <time>2019-02-28T11:30:29Z</time>
      </trkpt>
      <trkpt lat="43.9387" lon="5.2262">
        <ele>487.23</ele>
        <time>2019-02-28T11:30:43Z</time>
      </trkpt>
      <trkpt lat="43.93882" lon="5.22637">
        <ele>487.68</ele>
        <time>2019-02-28T11:30:57Z</time>
      </trkpt>
      <trkpt lat="43.93887" lon="5.22648">
        <ele>488.28</ele>
        <time>2019-02-28T11:31:07Z</time>
      </trkpt>
      <trkpt lat="43.93896" lon="5.22669">
        <ele>490.42</ele>
        <time>2019-02-28T11:31:26Z</time>
      </trkpt>
      <trkpt lat="43.93903" lon="5.22687">
        <ele>493.51</ele>
        <time>2019-02-28T11:31:47Z</time>
      </trkpt>
      <trkpt lat="43.93911" lon="5.22709">
        <ele>495.85</ele>
        <time>2019-02-28T11:32:06Z</time>
      </trkpt>
      <trkpt lat="43.93919" lon="5.22721">
        <ele>497.98</ele>
        <time>2019-02-28T11:32:18Z</time>
      </trkpt>
      <trkpt lat="43.93945" lon="5.22723">
        <ele>498.52</ele>
        <time>2019-02-28T11:32:35Z</time>
      </trkpt>
      <trkpt lat="43.9396" lon="5.22726">
        <ele>498.92</ele>
        <time>2019-02-28T11:32:48Z</time>
      </trkpt>
      <trkpt lat="43.93969" lon="5.22725">
        <ele>499.77</ele>
        <time>2019-02-28T11:32:56Z</time>
      </trkpt>
      <trkpt lat="43.93988" lon="5.2273">
        <ele>501.31</ele>
        <time>2019-02-28T11:33:11Z</time>
      </trkpt>
      <trkpt lat="43.93996" lon="5.22737">
        <ele>501.7</ele>
        <time>2019-02-28T11:33:20Z</time>
      </trkpt>
      <trkpt lat="43.94006" lon="5.22756">
        <ele>502.04</ele>
        <time>2019-02-28T11:33:35Z</time>
      </trkpt>
      <trkpt lat="43.94013" lon="5.22777">
        <ele>502.61</ele>
        <time>2019-02-28T11:33:48Z</time>
      </trkpt>
      <trkpt lat="43.94018" lon="5.22794">
        <ele>503.07</ele>
        <time>2019-02-28T11:33:58Z</time>
      </trkpt>
      <trkpt lat="43.94021" lon="5.22808">
        <ele>503.5</ele>
        <time>2019-02-28T11:34:06Z</time>
      </trkpt>
      <trkpt lat="43.94024" lon="5.22822">
        <ele>503.95</ele>
        <time>2019-02-28T11:34:14Z</time>
      </trkpt>
      <trkpt lat="43.94025" lon="5.2284">
        <ele>504.47</ele>
        <time>2019-02-28T11:34:25Z</time>
      </trkpt>
      <trkpt lat="43.94025" lon="5.22852">
        <ele>504.79</ele>
        <time>2019-02-28T11:34:30Z</time>
      </trkpt>
      <trkpt lat="43.94029" lon="5.22876">
        <ele>505.74</ele>
        <time>2019-02-28T11:34:44Z</time>
      </trkpt>
      <trkpt lat="43.9404" lon="5.22881">
        <ele>505.77</ele>
        <time>2019-02-28T11:34:50Z</time>
      </trkpt>
      <trkpt lat="43.94062" lon="5.22908">
        <ele>506.47</ele>
        <time>2019-02-28T11:35:05Z</time>
      </trkpt>
      <trkpt lat="43.94081" lon="5.2293">
        <ele>507.27</ele>
        <time>2019-02-28T11:35:21Z</time>
      </trkpt>
      <trkpt lat="43.94091" lon="5.22943">
        <ele>508.25</ele>
        <time>2019-02-28T11:35:31Z</time>
      </trkpt>
      <trkpt lat="43.94099" lon="5.22952">
        <ele>509.08</ele>
        <time>2019-02-28T11:35:38Z</time>
      </trkpt>
      <trkpt lat="43.94112" lon="5.22966">
        <ele>509.93</ele>
        <time>2019-02-28T11:35:51Z</time>
      </trkpt>
      <trkpt lat="43.94127" lon="5.2298">
        <ele>510.67</ele>
        <time>2019-02-28T11:36:04Z</time>
      </trkpt>
      <trkpt lat="43.94144" lon="5.22991">
        <ele>510.7</ele>
        <time>2019-02-28T11:36:18Z</time>
      </trkpt>
      <trkpt lat="43.9415" lon="5.22995">
        <ele>511.11</ele>
        <time>2019-02-28T11:36:23Z</time>
      </trkpt>
      <trkpt lat="43.94156" lon="5.22998">
        <ele>511.74</ele>
        <time>2019-02-28T11:36:27Z</time>
      </trkpt>
      <trkpt lat="43.94173" lon="5.23009">
        <ele>512.79</ele>
        <time>2019-02-28T11:36:43Z</time>
      </trkpt>
      <trkpt lat="43.94194" lon="5.23023">
        <ele>512.36</ele>
        <time>2019-02-28T11:37:01Z</time>
      </trkpt>
      <trkpt lat="43.94201" lon="5.23027">
        <ele>511.92</ele>
        <time>2019-02-28T11:37:06Z</time>
      </trkpt>
      <trkpt lat="43.94223" lon="5.23041">
        <ele>511.5</ele>
        <time>2019-02-28T11:37:22Z</time>
      </trkpt>
      <trkpt lat="43.94242" lon="5.23063">
        <ele>510.7</ele>
        <time>2019-02-28T11:37:38Z</time>
      </trkpt>
      <trkpt lat="43.94256" lon="5.23089">
        <ele>509.81</ele>
        <time>2019-02-28T11:37:54Z</time>
      </trkpt>
      <trkpt lat="43.9427" lon="5.23119">
        <ele>508.4</ele>
        <time>2019-02-28T11:38:11Z</time>
      </trkpt>
      <trkpt lat="43.94287" lon="5.23142">
        <ele>506.94</ele>
        <time>2019-02-28T11:38:27Z</time>
      </trkpt>
      <trkpt lat="43.94312" lon="5.23161">
        <ele>505.3</ele>
        <time>2019-02-28T11:38:45Z</time>
      </trkpt>
      <trkpt lat="43.94329" lon="5.2317">
        <ele>504.94</ele>
        <time>2019-02-28T11:38:57Z</time>
      </trkpt>
      <trkpt lat="43.94352" lon="5.23178">
        <ele>505.62</ele>
        <time>2019-02-28T11:39:15Z</time>
      </trkpt>
      <trkpt lat="43.94373" lon="5.23193">
        <ele>506.15</ele>
        <time>2019-02-28T11:39:31Z</time>
      </trkpt>
      <trkpt lat="43.94393" lon="5.23214">
        <ele>506.63</ele>
        <time>2019-02-28T11:39:48Z</time>
      </trkpt>
      <trkpt lat="43.94409" lon="5.23232">
        <ele>506.55</ele>
        <time>2019-02-28T11:40:03Z</time>
      </trkpt>
      <trkpt lat="43.94425" lon="5.23255">
        <ele>506.46</ele>
        <time>2019-02-28T11:40:19Z</time>
      </trkpt>
      <trkpt lat="43.94444" lon="5.23283">
        <ele>505.47</ele>
        <time>2019-02-28T11:40:37Z</time>
      </trkpt>
      <trkpt lat="43.94458" lon="5.23312">
        <ele>503.97</ele>
        <time>2019-02-28T11:40:53Z</time>
      </trkpt>
      <trkpt lat="43.94474" lon="5.23333">
        <ele>502.92</ele>
        <time>2019-02-28T11:41:08Z</time>
      </trkpt>
      <trkpt lat="43.94485" lon="5.23365">
        <ele>502.14</ele>
        <time>2019-02-28T11:41:25Z</time>
      </trkpt>
      <trkpt lat="43.94488" lon="5.23385">
        <ele>501.6</ele>
        <time>2019-02-28T11:41:39Z</time>
      </trkpt>
      <trkpt lat="43.94491" lon="5.23406">
        <ele>501.55</ele>
        <time>2019-02-28T11:41:50Z</time>
      </trkpt>
      <trkpt lat="43.94493" lon="5.23419">
        <ele>501.38</ele>
        <time>2019-02-28T11:41:56Z</time>
      </trkpt>
      <trkpt lat="43.94502" lon="5.23447">
        <ele>499.99</ele>
        <time>2019-02-28T11:42:12Z</time>
      </trkpt>
      <trkpt lat="43.94508" lon="5.23492">
        <ele>499.28</ele>
        <time>2019-02-28T11:42:32Z</time>
      </trkpt>
      <trkpt lat="43.94511" lon="5.23514">
        <ele>499.24</ele>
        <time>2019-02-28T11:42:44Z</time>
      </trkpt>
      <trkpt lat="43.94513" lon="5.2352">
        <ele>499.35</ele>
        <time>2019-02-28T11:42:48Z</time>
      </trkpt>
      <trkpt lat="43.94534" lon="5.2353">
        <ele>499.47</ele>
        <time>2019-02-28T11:43:05Z</time>
      </trkpt>
      <trkpt lat="43.94556" lon="5.23533">
        <ele>499.38</ele>
        <time>2019-02-28T11:43:22Z</time>
      </trkpt>
      <trkpt lat="43.94579" lon="5.23546">
        <ele>499.12</ele>
        <time>2019-02-28T11:43:39Z</time>
      </trkpt>
      <trkpt lat="43.94592" lon="5.2356">
        <ele>499.76</ele>
        <time>2019-02-28T11:43:50Z</time>
      </trkpt>
      <trkpt lat="43.9461" lon="5.2358">
        <ele>500.64</ele>
        <time>2019-02-28T11:44:05Z</time>
      </trkpt>
      <trkpt lat="43.94632" lon="5.23604">
        <ele>499.76</ele>
        <time>2019-02-28T11:44:22Z</time>
      </trkpt>
      <trkpt lat="43.94641" lon="5.23613">
        <ele>500.05</ele>
        <time>2019-02-28T11:44:29Z</time>
      </trkpt>
      <trkpt lat="43.94646" lon="5.2362">
        <ele>500.27</ele>
        <time>2019-02-28T11:44:34Z</time>
      </trkpt>
      <trkpt lat="43.94652" lon="5.23629">
        <ele>500.17</ele>
        <time>2019-02-28T11:44:40Z</time>
      </trkpt>
      <trkpt lat="43.94661" lon="5.23644">
        <ele>499.93</ele>
        <time>2019-02-28T11:44:50Z</time>
      </trkpt>
      <trkpt lat="43.94671" lon="5.23677">
        <ele>500.42</ele>
        <time>2019-02-28T11:45:07Z</time>
      </trkpt>
      <trkpt lat="43.94683" lon="5.23707">
        <ele>500.98</ele>
        <time>2019-02-28T11:45:23Z</time>
      </trkpt>
      <trkpt lat="43.94696" lon="5.23736">
        <ele>501.43</ele>
        <time>2019-02-28T11:45:39Z</time>
      </trkpt>
      <trkpt lat="43.94715" lon="5.23765">
        <ele>501.18</ele>
        <time>2019-02-28T11:45:57Z</time>
      </trkpt>
      <trkpt lat="43.94739" lon="5.2379">
        <ele>501.23</ele>
        <time>2019-02-28T11:46:15Z</time>
      </trkpt>
      <trkpt lat="43.94756" lon="5.23814">
        <ele>501.33</ele>
        <time>2019-02-28T11:46:32Z</time>
      </trkpt>
      <trkpt lat="43.94772" lon="5.23841">
        <ele>501.61</ele>
        <time>2019-02-28T11:46:49Z</time>
      </trkpt>
      <trkpt lat="43.94789" lon="5.23865">
        <ele>501.81</ele>
        <time>2019-02-28T11:47:05Z</time>
      </trkpt>
      <trkpt lat="43.94809" lon="5.23894">
        <ele>502.28</ele>
        <time>2019-02-28T11:47:24Z</time>
      </trkpt>
      <trkpt lat="43.94826" lon="5.23914">
        <ele>503.04</ele>
        <time>2019-02-28T11:47:40Z</time>
      </trkpt>
      <trkpt lat="43.94846" lon="5.23944">
        <ele>502.84</ele>
        <time>2019-02-28T11:47:59Z</time>
      </trkpt>
      <trkpt lat="43.94859" lon="5.23973">
        <ele>502.64</ele>
        <time>2019-02-28T11:48:14Z</time>
      </trkpt>
      <trkpt lat="43.94863" lon="5.24004">
        <ele>503.23</ele>
        <time>2019-02-28T11:48:30Z</time>
      </trkpt>
      <trkpt lat="43.9487" lon="5.2404">
        <ele>502.47</ele>
        <time>2019-02-28T11:48:47Z</time>
      </trkpt>
      <trkpt lat="43.94874" lon="5.24071">
        <ele>502.34</ele>
        <time>2019-02-28T11:49:04Z</time>
      </trkpt>
      <trkpt lat="43.94876" lon="5.24107">
        <ele>502.67</ele>
        <time>2019-02-28T11:49:22Z</time>
      </trkpt>
      <trkpt lat="43.9488" lon="5.2414">
        <ele>502.28</ele>
        <time>2019-02-28T11:49:39Z</time>
      </trkpt>
      <trkpt lat="43.94892" lon="5.24171">
        <ele>502.37</ele>
        <time>2019-02-28T11:49:55Z</time>
      </trkpt>
      <trkpt lat="43.94912" lon="5.24195">
        <ele>502.4</ele>
        <time>2019-02-28T11:50:12Z</time>
      </trkpt>
      <trkpt lat="43.94914" lon="5.24199">
        <ele>502.27</ele>
        <time>2019-02-28T11:50:15Z</time>
      </trkpt>
      <trkpt lat="43.94921" lon="5.24203">
        <ele>502.28</ele>
        <time>2019-02-28T11:50:21Z</time>
      </trkpt>
      <trkpt lat="43.94941" lon="5.24217">
        <ele>502.08</ele>
        <time>2019-02-28T11:50:37Z</time>
      </trkpt>
      <trkpt lat="43.94965" lon="5.24232">
        <ele>501.91</ele>
        <time>2019-02-28T11:50:54Z</time>
      </trkpt>
      <trkpt lat="43.9499" lon="5.24248">
        <ele>502.15</ele>
        <time>2019-02-28T11:51:12Z</time>
      </trkpt>
      <trkpt lat="43.95011" lon="5.24267">
        <ele>501.86</ele>
        <time>2019-02-28T11:51:30Z</time>
      </trkpt>
      <trkpt lat="43.95029" lon="5.24284">
        <ele>501.41</ele>
        <time>2019-02-28T11:51:46Z</time>
      </trkpt>
      <trkpt lat="43.95044" lon="5.24292">
        <ele>500.16</ele>
        <time>2019-02-28T11:51:57Z</time>
      </trkpt>
      <trkpt lat="43.95049" lon="5.24296">
        <ele>499.75</ele>
        <time>2019-02-28T11:52:02Z</time>
      </trkpt>
      <trkpt lat="43.95065" lon="5.24311">
        <ele>499.12</ele>
        <time>2019-02-28T11:52:18Z</time>
      </trkpt>
      <trkpt lat="43.95083" lon="5.24324">
        <ele>499.18</ele>
        <time>2019-02-28T11:52:32Z</time>
      </trkpt>
      <trkpt lat="43.95096" lon="5.24332">
        <ele>499.4</ele>
        <time>2019-02-28T11:52:42Z</time>
      </trkpt>
      <trkpt lat="43.95098" lon="5.24329">
        <ele>499.77</ele>
        <time>2019-02-28T11:52:46Z</time>
      </trkpt>
      <trkpt lat="43.95094" lon="5.2433">
        <ele>499.23</ele>
        <time>2019-02-28T11:53:10Z</time>
      </trkpt>
      <trkpt lat="43.9509" lon="5.24331">
        <ele>499.01</ele>
        <time>2019-02-28T11:53:24Z</time>
      </trkpt>
      <trkpt lat="43.95095" lon="5.24332">
        <ele>499.25</ele>
        <time>2019-02-28T11:53:30Z</time>
      </trkpt>
      <trkpt lat="43.95102" lon="5.24325">
        <ele>499.35</ele>
        <time>2019-02-28T11:53:37Z</time>
      </trkpt>
      <trkpt lat="43.95103" lon="5.24323">
        <ele>499.24</ele>
        <time>2019-02-28T11:53:39Z</time>
      </trkpt>
      <trkpt lat="43.9511" lon="5.24295">
        <ele>499.53</ele>
        <time>2019-02-28T11:53:58Z</time>
      </trkpt>
      <trkpt lat="43.95116" lon="5.24271">
        <ele>500.05</ele>
        <time>2019-02-28T11:54:13Z</time>
      </trkpt>
      <trkpt lat="43.95122" lon="5.24239">
        <ele>500.99</ele>
        <time>2019-02-28T11:54:30Z</time>
      </trkpt>
      <trkpt lat="43.95129" lon="5.24201">
        <ele>502.23</ele>
        <time>2019-02-28T11:54:48Z</time>
      </trkpt>
      <trkpt lat="43.95123" lon="5.24183">
        <ele>500.98</ele>
        <time>2019-02-28T11:55:02Z</time>
      </trkpt>
      <trkpt lat="43.95123" lon="5.24173">
        <ele>501.06</ele>
        <time>2019-02-28T11:55:20Z</time>
      </trkpt>
      <trkpt lat="43.95125" lon="5.24168">
        <ele>501.34</ele>
        <time>2019-02-28T11:55:38Z</time>
      </trkpt>
      <trkpt lat="43.95126" lon="5.24163">
        <ele>501.15</ele>
        <time>2019-02-28T11:55:44Z</time>
      </trkpt>
      <trkpt lat="43.95136" lon="5.24147">
        <ele>500.9</ele>
        <time>2019-02-28T11:56:01Z</time>
      </trkpt>
      <trkpt lat="43.95136" lon="5.2414">
        <ele>501.51</ele>
        <time>2019-02-28T11:56:14Z</time>
      </trkpt>
      <trkpt lat="43.95141" lon="5.24139">
        <ele>503.91</ele>
        <time>2019-02-28T12:00:25Z</time>
      </trkpt>
      <trkpt lat="43.95145" lon="5.24136">
        <ele>504.09</ele>
        <time>2019-02-28T12:00:53Z</time>
      </trkpt>
      <trkpt lat="43.95152" lon="5.2413">
        <ele>504.2</ele>
        <time>2019-02-28T12:01:23Z</time>
      </trkpt>
      <trkpt lat="43.95163" lon="5.24123">
        <ele>503.74</ele>
        <time>2019-02-28T12:01:40Z</time>
      </trkpt>
      <trkpt lat="43.95167" lon="5.24118">
        <ele>503.94</ele>
        <time>2019-02-28T12:01:52Z</time>
      </trkpt>
      <trkpt lat="43.95171" lon="5.24117">
        <ele>501.3</ele>
        <time>2019-02-28T12:02:52Z</time>
      </trkpt>
      <trkpt lat="43.95155" lon="5.24096">
        <ele>499.6</ele>
        <time>2019-02-28T12:03:07Z</time>
      </trkpt>
      <trkpt lat="43.95152" lon="5.24088">
        <ele>497.62</ele>
        <time>2019-02-28T12:03:20Z</time>
      </trkpt>
      <trkpt lat="43.95137" lon="5.24065">
        <ele>498.28</ele>
        <time>2019-02-28T12:03:40Z</time>
      </trkpt>
      <trkpt lat="43.95128" lon="5.24054">
        <ele>497.03</ele>
        <time>2019-02-28T12:03:50Z</time>
      </trkpt>
      <trkpt lat="43.95125" lon="5.24054">
        <ele>497.03</ele>
        <time>2019-02-28T12:03:53Z</time>
      </trkpt>
      <trkpt lat="43.95123" lon="5.2405">
        <ele>496.94</ele>
        <time>2019-02-28T12:03:56Z</time>
      </trkpt>
      <trkpt lat="43.9512" lon="5.24034">
        <ele>495.73</ele>
        <time>2019-02-28T12:04:08Z</time>
      </trkpt>
      <trkpt lat="43.95115" lon="5.24025">
        <ele>494.93</ele>
        <time>2019-02-28T12:04:14Z</time>
      </trkpt>
      <trkpt lat="43.95114" lon="5.24012">
        <ele>491.58</ele>
        <time>2019-02-28T12:04:23Z</time>
      </trkpt>
      <trkpt lat="43.9511" lon="5.24009">
        <ele>491.71</ele>
        <time>2019-02-28T12:04:39Z</time>
      </trkpt>
      <trkpt lat="43.95107" lon="5.23997">
        <ele>489.87</ele>
        <time>2019-02-28T12:04:51Z</time>
      </trkpt>
      <trkpt lat="43.95107" lon="5.23996">
        <ele>489.55</ele>
        <time>2019-02-28T12:04:52Z</time>
      </trkpt>
      <trkpt lat="43.95109" lon="5.2399">
        <ele>487.57</ele>
        <time>2019-02-28T12:04:57Z</time>
      </trkpt>
      <trkpt lat="43.95111" lon="5.23981">
        <ele>484.13</ele>
        <time>2019-02-28T12:05:07Z</time>
      </trkpt>
      <trkpt lat="43.95111" lon="5.23978">
        <ele>483.78</ele>
        <time>2019-02-28T12:05:09Z</time>
      </trkpt>
      <trkpt lat="43.9511" lon="5.23969">
        <ele>483.71</ele>
        <time>2019-02-28T12:05:16Z</time>
      </trkpt>
      <trkpt lat="43.95112" lon="5.23951">
        <ele>480.55</ele>
        <time>2019-02-28T12:05:28Z</time>
      </trkpt>
      <trkpt lat="43.95111" lon="5.23938">
        <ele>477.23</ele>
        <time>2019-02-28T12:05:35Z</time>
      </trkpt>
      <trkpt lat="43.95111" lon="5.23937">
        <ele>476.81</ele>
        <time>2019-02-28T12:05:36Z</time>
      </trkpt>
      <trkpt lat="43.95109" lon="5.23918">
        <ele>473.44</ele>
        <time>2019-02-28T12:05:46Z</time>
      </trkpt>
      <trkpt lat="43.95092" lon="5.23912">
        <ele>474.12</ele>
        <time>2019-02-28T12:26:41Z</time>
      </trkpt>
      <trkpt lat="43.95091" lon="5.23909">
        <ele>474.07</ele>
        <time>2019-02-28T12:26:57Z</time>
      </trkpt>
      <trkpt lat="43.95088" lon="5.23908">
        <ele>474.28</ele>
        <time>2019-02-28T12:27:01Z</time>
      </trkpt>
      <trkpt lat="43.95069" lon="5.23896">
        <ele>473.93</ele>
        <time>2019-02-28T12:27:20Z</time>
      </trkpt>
      <trkpt lat="43.95047" lon="5.23886">
        <ele>472.15</ele>
        <time>2019-02-28T12:27:39Z</time>
      </trkpt>
      <trkpt lat="43.9504" lon="5.2388">
        <ele>469.04</ele>
        <time>2019-02-28T12:27:47Z</time>
      </trkpt>
      <trkpt lat="43.95027" lon="5.23854">
        <ele>467.01</ele>
        <time>2019-02-28T12:28:06Z</time>
      </trkpt>
      <trkpt lat="43.95019" lon="5.23826">
        <ele>464.44</ele>
        <time>2019-02-28T12:28:25Z</time>
      </trkpt>
      <trkpt lat="43.95012" lon="5.238">
        <ele>463.2</ele>
        <time>2019-02-28T12:28:42Z</time>
      </trkpt>
      <trkpt lat="43.95003" lon="5.23765">
        <ele>462.92</ele>
        <time>2019-02-28T12:28:59Z</time>
      </trkpt>
      <trkpt lat="43.94993" lon="5.23739">
        <ele>461.93</ele>
        <time>2019-02-28T12:29:15Z</time>
      </trkpt>
      <trkpt lat="43.94985" lon="5.23709">
        <ele>461.1</ele>
        <time>2019-02-28T12:29:33Z</time>
      </trkpt>
      <trkpt lat="43.94975" lon="5.23681">
        <ele>459.85</ele>
        <time>2019-02-28T12:29:50Z</time>
      </trkpt>
      <trkpt lat="43.94965" lon="5.23652">
        <ele>458.69</ele>
        <time>2019-02-28T12:30:06Z</time>
      </trkpt>
      <trkpt lat="43.94954" lon="5.23617">
        <ele>458.35</ele>
        <time>2019-02-28T12:30:24Z</time>
      </trkpt>
      <trkpt lat="43.94943" lon="5.23581">
        <ele>456.8</ele>
        <time>2019-02-28T12:30:43Z</time>
      </trkpt>
      <trkpt lat="43.94934" lon="5.23548">
        <ele>455.3</ele>
        <time>2019-02-28T12:31:00Z</time>
      </trkpt>
      <trkpt lat="43.94926" lon="5.23513">
        <ele>454.07</ele>
        <time>2019-02-28T12:31:18Z</time>
      </trkpt>
      <trkpt lat="43.94919" lon="5.23478">
        <ele>453.52</ele>
        <time>2019-02-28T12:31:37Z</time>
      </trkpt>
      <trkpt lat="43.94917" lon="5.23457">
        <ele>452.88</ele>
        <time>2019-02-28T12:31:51Z</time>
      </trkpt>
      <trkpt lat="43.94913" lon="5.23432">
        <ele>451.05</ele>
        <time>2019-02-28T12:32:07Z</time>
      </trkpt>
      <trkpt lat="43.94905" lon="5.23405">
        <ele>449.36</ele>
        <time>2019-02-28T12:32:23Z</time>
      </trkpt>
      <trkpt lat="43.94899" lon="5.23389">
        <ele>447.96</ele>
        <time>2019-02-28T12:32:35Z</time>
      </trkpt>
      <trkpt lat="43.94897" lon="5.23382">
        <ele>447.39</ele>
        <time>2019-02-28T12:32:53Z</time>
      </trkpt>
      <trkpt lat="43.94897" lon="5.23378">
        <ele>448.09</ele>
        <time>2019-02-28T12:33:11Z</time>
      </trkpt>
      <trkpt lat="43.94893" lon="5.2337">
        <ele>447.17</ele>
        <time>2019-02-28T12:33:36Z</time>
      </trkpt>
      <trkpt lat="43.94893" lon="5.23367">
        <ele>447</ele>
        <time>2019-02-28T12:33:38Z</time>
      </trkpt>
      <trkpt lat="43.94892" lon="5.23362">
        <ele>446.66</ele>
        <time>2019-02-28T12:33:41Z</time>
      </trkpt>
      <trkpt lat="43.9489" lon="5.23354">
        <ele>446.38</ele>
        <time>2019-02-28T12:33:45Z</time>
      </trkpt>
      <trkpt lat="43.94888" lon="5.23345">
        <ele>446.36</ele>
        <time>2019-02-28T12:33:51Z</time>
      </trkpt>
      <trkpt lat="43.94885" lon="5.23333">
        <ele>446.94</ele>
        <time>2019-02-28T12:34:00Z</time>
      </trkpt>
      <trkpt lat="43.94884" lon="5.23304">
        <ele>445.92</ele>
        <time>2019-02-28T12:34:17Z</time>
      </trkpt>
      <trkpt lat="43.94885" lon="5.23302">
        <ele>445.99</ele>
        <time>2019-02-28T12:34:40Z</time>
      </trkpt>
      <trkpt lat="43.94887" lon="5.23293">
        <ele>445.23</ele>
        <time>2019-02-28T12:34:45Z</time>
      </trkpt>
      <trkpt lat="43.94887" lon="5.23286">
        <ele>444.92</ele>
        <time>2019-02-28T12:34:49Z</time>
      </trkpt>
      <trkpt lat="43.94887" lon="5.23276">
        <ele>445.1</ele>
        <time>2019-02-28T12:34:55Z</time>
      </trkpt>
      <trkpt lat="43.94889" lon="5.23267">
        <ele>444.76</ele>
        <time>2019-02-28T12:35:02Z</time>
      </trkpt>
      <trkpt lat="43.94888" lon="5.23264">
        <ele>444.2</ele>
        <time>2019-02-28T12:35:04Z</time>
      </trkpt>
      <trkpt lat="43.94886" lon="5.23251">
        <ele>443.41</ele>
        <time>2019-02-28T12:35:11Z</time>
      </trkpt>
      <trkpt lat="43.94885" lon="5.23226">
        <ele>443.9</ele>
        <time>2019-02-28T12:35:23Z</time>
      </trkpt>
      <trkpt lat="43.94886" lon="5.23196">
        <ele>444.29</ele>
        <time>2019-02-28T12:35:40Z</time>
      </trkpt>
      <trkpt lat="43.94889" lon="5.23168">
        <ele>445.13</ele>
        <time>2019-02-28T12:35:57Z</time>
      </trkpt>
      <trkpt lat="43.94889" lon="5.23143">
        <ele>445.57</ele>
        <time>2019-02-28T12:36:12Z</time>
      </trkpt>
      <trkpt lat="43.94882" lon="5.23119">
        <ele>444.71</ele>
        <time>2019-02-28T12:36:27Z</time>
      </trkpt>
      <trkpt lat="43.94881" lon="5.23118">
        <ele>444.58</ele>
        <time>2019-02-28T12:36:28Z</time>
      </trkpt>
      <trkpt lat="43.94866" lon="5.23101">
        <ele>443.03</ele>
        <time>2019-02-28T12:36:42Z</time>
      </trkpt>
      <trkpt lat="43.94848" lon="5.23089">
        <ele>441.08</ele>
        <time>2019-02-28T12:37:00Z</time>
      </trkpt>
      <trkpt lat="43.94833" lon="5.23078">
        <ele>440.11</ele>
        <time>2019-02-28T12:37:13Z</time>
      </trkpt>
      <trkpt lat="43.94814" lon="5.23071">
        <ele>439.68</ele>
        <time>2019-02-28T12:37:28Z</time>
      </trkpt>
      <trkpt lat="43.94803" lon="5.23063">
        <ele>439.54</ele>
        <time>2019-02-28T12:37:36Z</time>
      </trkpt>
      <trkpt lat="43.94786" lon="5.23047">
        <ele>439.01</ele>
        <time>2019-02-28T12:37:51Z</time>
      </trkpt>
      <trkpt lat="43.94778" lon="5.23038">
        <ele>439.1</ele>
        <time>2019-02-28T12:37:58Z</time>
      </trkpt>
      <trkpt lat="43.94774" lon="5.2303">
        <ele>439.33</ele>
        <time>2019-02-28T12:38:02Z</time>
      </trkpt>
      <trkpt lat="43.9476" lon="5.23011">
        <ele>438.82</ele>
        <time>2019-02-28T12:38:17Z</time>
      </trkpt>
      <trkpt lat="43.94756" lon="5.23004">
        <ele>438.8</ele>
        <time>2019-02-28T12:38:22Z</time>
      </trkpt>
      <trkpt lat="43.94751" lon="5.22989">
        <ele>438.75</ele>
        <time>2019-02-28T12:38:29Z</time>
      </trkpt>
      <trkpt lat="43.94732" lon="5.22963">
        <ele>439.16</ele>
        <time>2019-02-28T12:38:49Z</time>
      </trkpt>
      <trkpt lat="43.94723" lon="5.22955">
        <ele>439.1</ele>
        <time>2019-02-28T12:38:58Z</time>
      </trkpt>
      <trkpt lat="43.94713" lon="5.22933">
        <ele>438.67</ele>
        <time>2019-02-28T12:39:15Z</time>
      </trkpt>
      <trkpt lat="43.94703" lon="5.22901">
        <ele>437.64</ele>
        <time>2019-02-28T12:39:34Z</time>
      </trkpt>
      <trkpt lat="43.9469" lon="5.2288">
        <ele>437.57</ele>
        <time>2019-02-28T12:39:54Z</time>
      </trkpt>
      <trkpt lat="43.94677" lon="5.2286">
        <ele>435.28</ele>
        <time>2019-02-28T12:40:11Z</time>
      </trkpt>
      <trkpt lat="43.9467" lon="5.22847">
        <ele>436.65</ele>
        <time>2019-02-28T12:40:24Z</time>
      </trkpt>
      <trkpt lat="43.94662" lon="5.22836">
        <ele>437.52</ele>
        <time>2019-02-28T12:40:42Z</time>
      </trkpt>
      <trkpt lat="43.94649" lon="5.22818">
        <ele>437.2</ele>
        <time>2019-02-28T12:40:58Z</time>
      </trkpt>
      <trkpt lat="43.94637" lon="5.22793">
        <ele>437.27</ele>
        <time>2019-02-28T12:41:10Z</time>
      </trkpt>
      <trkpt lat="43.9462" lon="5.22776">
        <ele>437.47</ele>
        <time>2019-02-28T12:41:25Z</time>
      </trkpt>
      <trkpt lat="43.94601" lon="5.22761">
        <ele>438.15</ele>
        <time>2019-02-28T12:41:41Z</time>
      </trkpt>
      <trkpt lat="43.94582" lon="5.22734">
        <ele>437.96</ele>
        <time>2019-02-28T12:42:02Z</time>
      </trkpt>
      <trkpt lat="43.9457" lon="5.22712">
        <ele>437.99</ele>
        <time>2019-02-28T12:42:21Z</time>
      </trkpt>
      <trkpt lat="43.94558" lon="5.22682">
        <ele>437.43</ele>
        <time>2019-02-28T12:42:42Z</time>
      </trkpt>
      <trkpt lat="43.94544" lon="5.22657">
        <ele>438.6</ele>
        <time>2019-02-28T12:43:02Z</time>
      </trkpt>
      <trkpt lat="43.94531" lon="5.22626">
        <ele>437.05</ele>
        <time>2019-02-28T12:43:22Z</time>
      </trkpt>
      <trkpt lat="43.94527" lon="5.22616">
        <ele>437.18</ele>
        <time>2019-02-28T12:43:28Z</time>
      </trkpt>
      <trkpt lat="43.94513" lon="5.22584">
        <ele>436.48</ele>
        <time>2019-02-28T12:43:45Z</time>
      </trkpt>
      <trkpt lat="43.94498" lon="5.2257">
        <ele>434.85</ele>
        <time>2019-02-28T12:44:06Z</time>
      </trkpt>
      <trkpt lat="43.94491" lon="5.22553">
        <ele>433.12</ele>
        <time>2019-02-28T12:44:19Z</time>
      </trkpt>
      <trkpt lat="43.94487" lon="5.22518">
        <ele>430.73</ele>
        <time>2019-02-28T12:44:36Z</time>
      </trkpt>
      <trkpt lat="43.94487" lon="5.22514">
        <ele>430.46</ele>
        <time>2019-02-28T12:44:38Z</time>
      </trkpt>
      <trkpt lat="43.94493" lon="5.2251">
        <ele>427.08</ele>
        <time>2019-02-28T12:44:54Z</time>
      </trkpt>
      <trkpt lat="43.94501" lon="5.22505">
        <ele>425.03</ele>
        <time>2019-02-28T12:45:12Z</time>
      </trkpt>
      <trkpt lat="43.94493" lon="5.22493">
        <ele>423.57</ele>
        <time>2019-02-28T12:45:35Z</time>
      </trkpt>
      <trkpt lat="43.94485" lon="5.22484">
        <ele>421</ele>
        <time>2019-02-28T12:45:55Z</time>
      </trkpt>
      <trkpt lat="43.94479" lon="5.22481">
        <ele>420.62</ele>
        <time>2019-02-28T12:46:01Z</time>
      </trkpt>
      <trkpt lat="43.9446" lon="5.22472">
        <ele>420.19</ele>
        <time>2019-02-28T12:46:16Z</time>
      </trkpt>
      <trkpt lat="43.9445" lon="5.22456">
        <ele>420.56</ele>
        <time>2019-02-28T12:46:33Z</time>
      </trkpt>
      <trkpt lat="43.94428" lon="5.22439">
        <ele>419.95</ele>
        <time>2019-02-28T12:46:53Z</time>
      </trkpt>
      <trkpt lat="43.94406" lon="5.22418">
        <ele>419.4</ele>
        <time>2019-02-28T12:47:14Z</time>
      </trkpt>
      <trkpt lat="43.94379" lon="5.22407">
        <ele>419.19</ele>
        <time>2019-02-28T12:47:34Z</time>
      </trkpt>
      <trkpt lat="43.94369" lon="5.22423">
        <ele>418.56</ele>
        <time>2019-02-28T12:47:49Z</time>
      </trkpt>
      <trkpt lat="43.94337" lon="5.22427">
        <ele>418.07</ele>
        <time>2019-02-28T12:48:08Z</time>
      </trkpt>
      <trkpt lat="43.94305" lon="5.22416">
        <ele>418.35</ele>
        <time>2019-02-28T12:48:27Z</time>
      </trkpt>
      <trkpt lat="43.9428" lon="5.22408">
        <ele>417.68</ele>
        <time>2019-02-28T12:48:45Z</time>
      </trkpt>
      <trkpt lat="43.94268" lon="5.22383">
        <ele>417.6</ele>
        <time>2019-02-28T12:48:59Z</time>
      </trkpt>
      <trkpt lat="43.94259" lon="5.22368">
        <ele>417.1</ele>
        <time>2019-02-28T12:49:15Z</time>
      </trkpt>
      <trkpt lat="43.94255" lon="5.22357">
        <ele>417.25</ele>
        <time>2019-02-28T12:49:24Z</time>
      </trkpt>
      <trkpt lat="43.94257" lon="5.22358">
        <ele>416.47</ele>
        <time>2019-02-28T12:49:46Z</time>
      </trkpt>
      <trkpt lat="43.94258" lon="5.22358">
        <ele>416.75</ele>
        <time>2019-02-28T12:50:03Z</time>
      </trkpt>
      <trkpt lat="43.94262" lon="5.22349">
        <ele>417.66</ele>
        <time>2019-02-28T12:50:22Z</time>
      </trkpt>
      <trkpt lat="43.94261" lon="5.22332">
        <ele>417.47</ele>
        <time>2019-02-28T12:50:41Z</time>
      </trkpt>
      <trkpt lat="43.9426" lon="5.22311">
        <ele>417.31</ele>
        <time>2019-02-28T12:51:00Z</time>
      </trkpt>
      <trkpt lat="43.9426" lon="5.22307">
        <ele>417.24</ele>
        <time>2019-02-28T12:51:03Z</time>
      </trkpt>
      <trkpt lat="43.94253" lon="5.22281">
        <ele>417.78</ele>
        <time>2019-02-28T12:51:25Z</time>
      </trkpt>
      <trkpt lat="43.9425" lon="5.22272">
        <ele>417.5</ele>
        <time>2019-02-28T12:51:32Z</time>
      </trkpt>
      <trkpt lat="43.9424" lon="5.22261">
        <ele>417.85</ele>
        <time>2019-02-28T12:51:51Z</time>
      </trkpt>
      <trkpt lat="43.94232" lon="5.22247">
        <ele>418.74</ele>
        <time>2019-02-28T12:52:10Z</time>
      </trkpt>
      <trkpt lat="43.94219" lon="5.22237">
        <ele>418.56</ele>
        <time>2019-02-28T12:52:30Z</time>
      </trkpt>
      <trkpt lat="43.94209" lon="5.22233">
        <ele>418.33</ele>
        <time>2019-02-28T12:53:00Z</time>
      </trkpt>
      <trkpt lat="43.94202" lon="5.22236">
        <ele>418.96</ele>
        <time>2019-02-28T12:53:13Z</time>
      </trkpt>
      <trkpt lat="43.94199" lon="5.22239">
        <ele>418.25</ele>
        <time>2019-02-28T12:53:17Z</time>
      </trkpt>
      <trkpt lat="43.94196" lon="5.22241">
        <ele>417.66</ele>
        <time>2019-02-28T12:53:20Z</time>
      </trkpt>
      <trkpt lat="43.94186" lon="5.22248">
        <ele>416.82</ele>
        <time>2019-02-28T12:53:32Z</time>
      </trkpt>
      <trkpt lat="43.9418" lon="5.22259">
        <ele>414.73</ele>
        <time>2019-02-28T12:53:41Z</time>
      </trkpt>
      <trkpt lat="43.94173" lon="5.22266">
        <ele>413.17</ele>
        <time>2019-02-28T12:53:49Z</time>
      </trkpt>
      <trkpt lat="43.94166" lon="5.22271">
        <ele>412.58</ele>
        <time>2019-02-28T12:53:55Z</time>
      </trkpt>
      <trkpt lat="43.94164" lon="5.22273">
        <ele>412.42</ele>
        <time>2019-02-28T12:53:57Z</time>
      </trkpt>
      <trkpt lat="43.94149" lon="5.22286">
        <ele>411.62</ele>
        <time>2019-02-28T12:54:12Z</time>
      </trkpt>
      <trkpt lat="43.94144" lon="5.22291">
        <ele>411.59</ele>
        <time>2019-02-28T12:54:17Z</time>
      </trkpt>
      <trkpt lat="43.94127" lon="5.22303">
        <ele>411.65</ele>
        <time>2019-02-28T12:54:32Z</time>
      </trkpt>
      <trkpt lat="43.94108" lon="5.2231">
        <ele>411.84</ele>
        <time>2019-02-28T12:54:46Z</time>
      </trkpt>
      <trkpt lat="43.94093" lon="5.22321">
        <ele>411.26</ele>
        <time>2019-02-28T12:55:01Z</time>
      </trkpt>
      <trkpt lat="43.94067" lon="5.22324">
        <ele>410.47</ele>
        <time>2019-02-28T12:55:18Z</time>
      </trkpt>
      <trkpt lat="43.94065" lon="5.22324">
        <ele>410.41</ele>
        <time>2019-02-28T12:55:19Z</time>
      </trkpt>
      <trkpt lat="43.94043" lon="5.22312">
        <ele>410.61</ele>
        <time>2019-02-28T12:55:35Z</time>
      </trkpt>
      <trkpt lat="43.94042" lon="5.22311">
        <ele>410.62</ele>
        <time>2019-02-28T12:55:36Z</time>
      </trkpt>
      <trkpt lat="43.94036" lon="5.22283">
        <ele>410.46</ele>
        <time>2019-02-28T12:55:54Z</time>
      </trkpt>
      <trkpt lat="43.94037" lon="5.22251">
        <ele>410.11</ele>
        <time>2019-02-28T12:56:11Z</time>
      </trkpt>
      <trkpt lat="43.94036" lon="5.22215">
        <ele>410.69</ele>
        <time>2019-02-28T12:56:28Z</time>
      </trkpt>
      <trkpt lat="43.94032" lon="5.22193">
        <ele>410.37</ele>
        <time>2019-02-28T12:56:48Z</time>
      </trkpt>
      <trkpt lat="43.94012" lon="5.22188">
        <ele>410.53</ele>
        <time>2019-02-28T13:11:47Z</time>
      </trkpt>
      <trkpt lat="43.94014" lon="5.22203">
        <ele>410.67</ele>
        <time>2019-02-28T13:12:02Z</time>
      </trkpt>
      <trkpt lat="43.94014" lon="5.22197">
        <ele>410.67</ele>
        <time>2019-02-28T13:12:20Z</time>
      </trkpt>
      <trkpt lat="43.94012" lon="5.22196">
        <ele>407.63</ele>
        <time>2019-02-28T13:12:29Z</time>
      </trkpt>
      <trkpt lat="43.94008" lon="5.22195">
        <ele>404.58</ele>
        <time>2019-02-28T13:12:45Z</time>
      </trkpt>
      <trkpt lat="43.93999" lon="5.22197">
        <ele>404.97</ele>
        <time>2019-02-28T13:13:06Z</time>
      </trkpt>
      <trkpt lat="43.93991" lon="5.22196">
        <ele>408.14</ele>
        <time>2019-02-28T13:13:19Z</time>
      </trkpt>
      <trkpt lat="43.93985" lon="5.2219">
        <ele>411.15</ele>
        <time>2019-02-28T13:13:34Z</time>
      </trkpt>
      <trkpt lat="43.93973" lon="5.22194">
        <ele>414.19</ele>
        <time>2019-02-28T13:13:52Z</time>
      </trkpt>
      <trkpt lat="43.93954" lon="5.22195">
        <ele>415.58</ele>
        <time>2019-02-28T13:14:11Z</time>
      </trkpt>
      <trkpt lat="43.93949" lon="5.22191">
        <ele>415.57</ele>
        <time>2019-02-28T13:14:17Z</time>
      </trkpt>
      <trkpt lat="43.93938" lon="5.22186">
        <ele>414.68</ele>
        <time>2019-02-28T13:14:26Z</time>
      </trkpt>
      <trkpt lat="43.93922" lon="5.22198">
        <ele>412.67</ele>
        <time>2019-02-28T13:14:43Z</time>
      </trkpt>
      <trkpt lat="43.93914" lon="5.22213">
        <ele>410.86</ele>
        <time>2019-02-28T13:14:56Z</time>
      </trkpt>
      <trkpt lat="43.93899" lon="5.22228">
        <ele>408.51</ele>
        <time>2019-02-28T13:15:15Z</time>
      </trkpt>
      <trkpt lat="43.93881" lon="5.22229">
        <ele>408.59</ele>
        <time>2019-02-28T13:15:34Z</time>
      </trkpt>
      <trkpt lat="43.9388" lon="5.22223">
        <ele>408.35</ele>
        <time>2019-02-28T13:15:51Z</time>
      </trkpt>
      <trkpt lat="43.93867" lon="5.22221">
        <ele>407.68</ele>
        <time>2019-02-28T13:16:07Z</time>
      </trkpt>
      <trkpt lat="43.93852" lon="5.22214">
        <ele>406.4</ele>
        <time>2019-02-28T13:16:24Z</time>
      </trkpt>
      <trkpt lat="43.93835" lon="5.22191">
        <ele>404.06</ele>
        <time>2019-02-28T13:16:43Z</time>
      </trkpt>
      <trkpt lat="43.93828" lon="5.22181">
        <ele>400.96</ele>
        <time>2019-02-28T13:16:55Z</time>
      </trkpt>
      <trkpt lat="43.93827" lon="5.22175">
        <ele>397.77</ele>
        <time>2019-02-28T13:17:03Z</time>
      </trkpt>
      <trkpt lat="43.93826" lon="5.22162">
        <ele>395.45</ele>
        <time>2019-02-28T13:17:26Z</time>
      </trkpt>
      <trkpt lat="43.93829" lon="5.22159">
        <ele>392.27</ele>
        <time>2019-02-28T13:17:35Z</time>
      </trkpt>
      <trkpt lat="43.9383" lon="5.22158">
        <ele>391.46</ele>
        <time>2019-02-28T13:17:39Z</time>
      </trkpt>
      <trkpt lat="43.93831" lon="5.22144">
        <ele>390.21</ele>
        <time>2019-02-28T13:17:57Z</time>
      </trkpt>
      <trkpt lat="43.93831" lon="5.22142">
        <ele>390.9</ele>
        <time>2019-02-28T13:18:20Z</time>
      </trkpt>
      <trkpt lat="43.93824" lon="5.22141">
        <ele>390.64</ele>
        <time>2019-02-28T13:18:38Z</time>
      </trkpt>
      <trkpt lat="43.93813" lon="5.22134">
        <ele>391.77</ele>
        <time>2019-02-28T13:18:59Z</time>
      </trkpt>
      <trkpt lat="43.93806" lon="5.22128">
        <ele>391.45</ele>
        <time>2019-02-28T13:19:19Z</time>
      </trkpt>
      <trkpt lat="43.9379" lon="5.22126">
        <ele>390.3</ele>
        <time>2019-02-28T13:19:41Z</time>
      </trkpt>
      <trkpt lat="43.93776" lon="5.22128">
        <ele>390.28</ele>
        <time>2019-02-28T13:20:02Z</time>
      </trkpt>
      <trkpt lat="43.93763" lon="5.22129">
        <ele>389.93</ele>
        <time>2019-02-28T13:20:14Z</time>
      </trkpt>
      <trkpt lat="43.93753" lon="5.22133">
        <ele>388.77</ele>
        <time>2019-02-28T13:20:26Z</time>
      </trkpt>
      <trkpt lat="43.93733" lon="5.22142">
        <ele>388.1</ele>
        <time>2019-02-28T13:20:43Z</time>
      </trkpt>
      <trkpt lat="43.93721" lon="5.22136">
        <ele>388.72</ele>
        <time>2019-02-28T13:20:55Z</time>
      </trkpt>
      <trkpt lat="43.93703" lon="5.22132">
        <ele>386.7</ele>
        <time>2019-02-28T13:21:16Z</time>
      </trkpt>
      <trkpt lat="43.93688" lon="5.22132">
        <ele>385.48</ele>
        <time>2019-02-28T13:21:35Z</time>
      </trkpt>
      <trkpt lat="43.93662" lon="5.2211">
        <ele>385.69</ele>
        <time>2019-02-28T13:21:54Z</time>
      </trkpt>
      <trkpt lat="43.93644" lon="5.22097">
        <ele>384.87</ele>
        <time>2019-02-28T13:22:12Z</time>
      </trkpt>
      <trkpt lat="43.93621" lon="5.22083">
        <ele>384.48</ele>
        <time>2019-02-28T13:22:31Z</time>
      </trkpt>
      <trkpt lat="43.93595" lon="5.22078">
        <ele>384.2</ele>
        <time>2019-02-28T13:22:52Z</time>
      </trkpt>
      <trkpt lat="43.93575" lon="5.22081">
        <ele>385.79</ele>
        <time>2019-02-28T13:23:15Z</time>
      </trkpt>
      <trkpt lat="43.93557" lon="5.22094">
        <ele>384.72</ele>
        <time>2019-02-28T13:23:35Z</time>
      </trkpt>
      <trkpt lat="43.9353" lon="5.22103">
        <ele>382.07</ele>
        <time>2019-02-28T13:23:55Z</time>
      </trkpt>
      <trkpt lat="43.93504" lon="5.22101">
        <ele>381.41</ele>
        <time>2019-02-28T13:24:14Z</time>
      </trkpt>
      <trkpt lat="43.93475" lon="5.22102">
        <ele>380.92</ele>
        <time>2019-02-28T13:24:35Z</time>
      </trkpt>
      <trkpt lat="43.93455" lon="5.2211">
        <ele>380.56</ele>
        <time>2019-02-28T13:24:50Z</time>
      </trkpt>
      <trkpt lat="43.93441" lon="5.22116">
        <ele>380.21</ele>
        <time>2019-02-28T13:25:08Z</time>
      </trkpt>
      <trkpt lat="43.93435" lon="5.22124">
        <ele>380.42</ele>
        <time>2019-02-28T13:25:30Z</time>
      </trkpt>
      <trkpt lat="43.93421" lon="5.22129">
        <ele>380.4</ele>
        <time>2019-02-28T13:25:49Z</time>
      </trkpt>
      <trkpt lat="43.93407" lon="5.22136">
        <ele>380.29</ele>
        <time>2019-02-28T13:26:02Z</time>
      </trkpt>
      <trkpt lat="43.93405" lon="5.22137">
        <ele>381.42</ele>
        <time>2019-02-28T13:26:18Z</time>
      </trkpt>
      <trkpt lat="43.93404" lon="5.22131">
        <ele>382.59</ele>
        <time>2019-02-28T13:26:43Z</time>
      </trkpt>
      <trkpt lat="43.93402" lon="5.22135">
        <ele>382.63</ele>
        <time>2019-02-28T13:27:02Z</time>
      </trkpt>
      <trkpt lat="43.93393" lon="5.22142">
        <ele>380.54</ele>
        <time>2019-02-28T13:27:19Z</time>
      </trkpt>
      <trkpt lat="43.9339" lon="5.22139">
        <ele>380.25</ele>
        <time>2019-02-28T13:27:36Z</time>
      </trkpt>
      <trkpt lat="43.93382" lon="5.22139">
        <ele>380.98</ele>
        <time>2019-02-28T13:27:55Z</time>
      </trkpt>
      <trkpt lat="43.93377" lon="5.2213">
        <ele>383.61</ele>
        <time>2019-02-28T13:28:15Z</time>
      </trkpt>
      <trkpt lat="43.93374" lon="5.22124">
        <ele>384.22</ele>
        <time>2019-02-28T13:28:41Z</time>
      </trkpt>
      <trkpt lat="43.93375" lon="5.22108">
        <ele>387.47</ele>
        <time>2019-02-28T13:29:00Z</time>
      </trkpt>
      <trkpt lat="43.93376" lon="5.22102">
        <ele>390.53</ele>
        <time>2019-02-28T13:29:11Z</time>
      </trkpt>
      <trkpt lat="43.93375" lon="5.22087">
        <ele>393.64</ele>
        <time>2019-02-28T13:29:30Z</time>
      </trkpt>
      <trkpt lat="43.93381" lon="5.22086">
        <ele>395.62</ele>
        <time>2019-02-28T13:29:40Z</time>
      </trkpt>
      <trkpt lat="43.93392" lon="5.2209">
        <ele>397.33</ele>
        <time>2019-02-28T13:29:54Z</time>
      </trkpt>
      <trkpt lat="43.93395" lon="5.22078">
        <ele>398.53</ele>
        <time>2019-02-28T13:30:11Z</time>
      </trkpt>
      <trkpt lat="43.93388" lon="5.22067">
        <ele>401.57</ele>
        <time>2019-02-28T13:30:29Z</time>
      </trkpt>
      <trkpt lat="43.9338" lon="5.22043">
        <ele>404.31</ele>
        <time>2019-02-28T13:30:48Z</time>
      </trkpt>
      <trkpt lat="43.93366" lon="5.22023">
        <ele>407.27</ele>
        <time>2019-02-28T13:31:07Z</time>
      </trkpt>
      <trkpt lat="43.93349" lon="5.22016">
        <ele>410.01</ele>
        <time>2019-02-28T13:31:28Z</time>
      </trkpt>
      <trkpt lat="43.93341" lon="5.22">
        <ele>411.54</ele>
        <time>2019-02-28T13:31:44Z</time>
      </trkpt>
      <trkpt lat="43.93323" lon="5.21985">
        <ele>414.6</ele>
        <time>2019-02-28T13:32:05Z</time>
      </trkpt>
      <trkpt lat="43.93308" lon="5.21981">
        <ele>415.8</ele>
        <time>2019-02-28T13:32:15Z</time>
      </trkpt>
      <trkpt lat="43.9329" lon="5.21982">
        <ele>417.41</ele>
        <time>2019-02-28T13:32:31Z</time>
      </trkpt>
      <trkpt lat="43.93277" lon="5.2198">
        <ele>417.79</ele>
        <time>2019-02-28T13:32:41Z</time>
      </trkpt>
      <trkpt lat="43.93258" lon="5.21983">
        <ele>418.8</ele>
        <time>2019-02-28T13:32:56Z</time>
      </trkpt>
      <trkpt lat="43.9324" lon="5.21975">
        <ele>420.37</ele>
        <time>2019-02-28T13:33:14Z</time>
      </trkpt>
      <trkpt lat="43.93214" lon="5.21961">
        <ele>420.39</ele>
        <time>2019-02-28T13:33:36Z</time>
      </trkpt>
      <trkpt lat="43.93211" lon="5.2196">
        <ele>420.17</ele>
        <time>2019-02-28T13:33:38Z</time>
      </trkpt>
      <trkpt lat="43.93198" lon="5.21964">
        <ele>419.51</ele>
        <time>2019-02-28T13:33:48Z</time>
      </trkpt>
      <trkpt lat="43.9318" lon="5.21941">
        <ele>420.15</ele>
        <time>2019-02-28T13:34:07Z</time>
      </trkpt>
      <trkpt lat="43.93159" lon="5.21921">
        <ele>422.26</ele>
        <time>2019-02-28T13:34:28Z</time>
      </trkpt>
      <trkpt lat="43.93137" lon="5.21907">
        <ele>423.94</ele>
        <time>2019-02-28T13:34:48Z</time>
      </trkpt>
      <trkpt lat="43.93134" lon="5.21907">
        <ele>424.16</ele>
        <time>2019-02-28T13:34:51Z</time>
      </trkpt>
      <trkpt lat="43.93116" lon="5.21913">
        <ele>423.54</ele>
        <time>2019-02-28T13:35:06Z</time>
      </trkpt>
      <trkpt lat="43.93107" lon="5.21915">
        <ele>425.09</ele>
        <time>2019-02-28T13:35:24Z</time>
      </trkpt>
      <trkpt lat="43.931" lon="5.21923">
        <ele>425.79</ele>
        <time>2019-02-28T13:36:01Z</time>
      </trkpt>
      <trkpt lat="43.93099" lon="5.21929">
        <ele>425.42</ele>
        <time>2019-02-28T13:36:42Z</time>
      </trkpt>
      <trkpt lat="43.93098" lon="5.21932">
        <ele>425.6</ele>
        <time>2019-02-28T13:37:34Z</time>
      </trkpt>
      <trkpt lat="43.93097" lon="5.21931">
        <ele>425.54</ele>
        <time>2019-02-28T13:38:06Z</time>
      </trkpt>
      <trkpt lat="43.93081" lon="5.21934">
        <ele>427.18</ele>
        <time>2019-02-28T13:38:27Z</time>
      </trkpt>
      <trkpt lat="43.93067" lon="5.21942">
        <ele>427.61</ele>
        <time>2019-02-28T13:38:40Z</time>
      </trkpt>
      <trkpt lat="43.93054" lon="5.21956">
        <ele>428.04</ele>
        <time>2019-02-28T13:38:54Z</time>
      </trkpt>
      <trkpt lat="43.93035" lon="5.2198">
        <ele>426.87</ele>
        <time>2019-02-28T13:39:12Z</time>
      </trkpt>
      <trkpt lat="43.93032" lon="5.21982">
        <ele>426.45</ele>
        <time>2019-02-28T13:39:15Z</time>
      </trkpt>
      <trkpt lat="43.93022" lon="5.21979">
        <ele>425.07</ele>
        <time>2019-02-28T13:39:26Z</time>
      </trkpt>
      <trkpt lat="43.93012" lon="5.21948">
        <ele>424.49</ele>
        <time>2019-02-28T13:39:46Z</time>
      </trkpt>
      <trkpt lat="43.93012" lon="5.21936">
        <ele>424.02</ele>
        <time>2019-02-28T13:39:57Z</time>
      </trkpt>
      <trkpt lat="43.93015" lon="5.21913">
        <ele>424.82</ele>
        <time>2019-02-28T13:40:13Z</time>
      </trkpt>
      <trkpt lat="43.93018" lon="5.21902">
        <ele>425.12</ele>
        <time>2019-02-28T13:40:19Z</time>
      </trkpt>
      <trkpt lat="43.93023" lon="5.21875">
        <ele>426.4</ele>
        <time>2019-02-28T13:40:35Z</time>
      </trkpt>
      <trkpt lat="43.93025" lon="5.21864">
        <ele>426.83</ele>
        <time>2019-02-28T13:40:41Z</time>
      </trkpt>
      <trkpt lat="43.93029" lon="5.21849">
        <ele>427.42</ele>
        <time>2019-02-28T13:40:51Z</time>
      </trkpt>
      <trkpt lat="43.93039" lon="5.21828">
        <ele>428.1</ele>
        <time>2019-02-28T13:41:06Z</time>
      </trkpt>
      <trkpt lat="43.93048" lon="5.21808">
        <ele>430.27</ele>
        <time>2019-02-28T13:41:21Z</time>
      </trkpt>
      <trkpt lat="43.9305" lon="5.21798">
        <ele>430.98</ele>
        <time>2019-02-28T13:41:26Z</time>
      </trkpt>
      <trkpt lat="43.93056" lon="5.21771">
        <ele>433.14</ele>
        <time>2019-02-28T13:41:43Z</time>
      </trkpt>
      <trkpt lat="43.93057" lon="5.21765">
        <ele>433.39</ele>
        <time>2019-02-28T13:41:46Z</time>
      </trkpt>
      <trkpt lat="43.93057" lon="5.21744">
        <ele>434.36</ele>
        <time>2019-02-28T13:41:59Z</time>
      </trkpt>
      <trkpt lat="43.93054" lon="5.21718">
        <ele>435.89</ele>
        <time>2019-02-28T13:42:13Z</time>
      </trkpt>
      <trkpt lat="43.93052" lon="5.21698">
        <ele>437.24</ele>
        <time>2019-02-28T13:42:25Z</time>
      </trkpt>
      <trkpt lat="43.93045" lon="5.21672">
        <ele>438.3</ele>
        <time>2019-02-28T13:42:40Z</time>
      </trkpt>
      <trkpt lat="43.93038" lon="5.21648">
        <ele>440.55</ele>
        <time>2019-02-28T13:42:57Z</time>
      </trkpt>
      <trkpt lat="43.93034" lon="5.2164">
        <ele>441.3</ele>
        <time>2019-02-28T13:43:03Z</time>
      </trkpt>
      <trkpt lat="43.93026" lon="5.21615">
        <ele>443.74</ele>
        <time>2019-02-28T13:43:19Z</time>
      </trkpt>
      <trkpt lat="43.93018" lon="5.21588">
        <ele>445.59</ele>
        <time>2019-02-28T13:43:35Z</time>
      </trkpt>
      <trkpt lat="43.93015" lon="5.21578">
        <ele>446.52</ele>
        <time>2019-02-28T13:43:42Z</time>
      </trkpt>
      <trkpt lat="43.93008" lon="5.21553">
        <ele>448.69</ele>
        <time>2019-02-28T13:43:58Z</time>
      </trkpt>
      <trkpt lat="43.93011" lon="5.21525">
        <ele>450.55</ele>
        <time>2019-02-28T13:44:17Z</time>
      </trkpt>
      <trkpt lat="43.93019" lon="5.21513">
        <ele>452.01</ele>
        <time>2019-02-28T13:44:30Z</time>
      </trkpt>
      <trkpt lat="43.9303" lon="5.21497">
        <ele>454.38</ele>
        <time>2019-02-28T13:44:45Z</time>
      </trkpt>
      <trkpt lat="43.93033" lon="5.21489">
        <ele>454.66</ele>
        <time>2019-02-28T13:44:51Z</time>
      </trkpt>
      <trkpt lat="43.93043" lon="5.21469">
        <ele>455.82</ele>
        <time>2019-02-28T13:45:06Z</time>
      </trkpt>
      <trkpt lat="43.93048" lon="5.21441">
        <ele>456.41</ele>
        <time>2019-02-28T13:45:23Z</time>
      </trkpt>
      <trkpt lat="43.9305" lon="5.21413">
        <ele>455.16</ele>
        <time>2019-02-28T13:45:39Z</time>
      </trkpt>
      <trkpt lat="43.9305" lon="5.2139">
        <ele>454.31</ele>
        <time>2019-02-28T13:45:51Z</time>
      </trkpt>
      <trkpt lat="43.93052" lon="5.21359">
        <ele>454.84</ele>
        <time>2019-02-28T13:46:07Z</time>
      </trkpt>
      <trkpt lat="43.93058" lon="5.21341">
        <ele>455.21</ele>
        <time>2019-02-28T13:46:23Z</time>
      </trkpt>
      <trkpt lat="43.93069" lon="5.21312">
        <ele>455.75</ele>
        <time>2019-02-28T13:46:41Z</time>
      </trkpt>
      <trkpt lat="43.9309" lon="5.21308">
        <ele>454.17</ele>
        <time>2019-02-28T13:47:00Z</time>
      </trkpt>
      <trkpt lat="43.93097" lon="5.21302">
        <ele>453.62</ele>
        <time>2019-02-28T13:47:23Z</time>
      </trkpt>
      <trkpt lat="43.93097" lon="5.21289">
        <ele>453.41</ele>
        <time>2019-02-28T13:47:45Z</time>
      </trkpt>
      <trkpt lat="43.93083" lon="5.21271">
        <ele>453.57</ele>
        <time>2019-02-28T13:48:02Z</time>
      </trkpt>
      <trkpt lat="43.93066" lon="5.21248">
        <ele>455.15</ele>
        <time>2019-02-28T13:48:21Z</time>
      </trkpt>
      <trkpt lat="43.9305" lon="5.21239">
        <ele>458.13</ele>
        <time>2019-02-28T13:48:42Z</time>
      </trkpt>
      <trkpt lat="43.93037" lon="5.21235">
        <ele>461.22</ele>
        <time>2019-02-28T13:48:59Z</time>
      </trkpt>
      <trkpt lat="43.93026" lon="5.21235">
        <ele>464.37</ele>
        <time>2019-02-28T13:49:18Z</time>
      </trkpt>
      <trkpt lat="43.93009" lon="5.21239">
        <ele>467.45</ele>
        <time>2019-02-28T13:49:38Z</time>
      </trkpt>
      <trkpt lat="43.93013" lon="5.21219">
        <ele>468.34</ele>
        <time>2019-02-28T13:49:53Z</time>
      </trkpt>
      <trkpt lat="43.93019" lon="5.21197">
        <ele>471.05</ele>
        <time>2019-02-28T13:50:11Z</time>
      </trkpt>
      <trkpt lat="43.93022" lon="5.2117">
        <ele>474.2</ele>
        <time>2019-02-28T13:50:30Z</time>
      </trkpt>
      <trkpt lat="43.93022" lon="5.2116">
        <ele>474.84</ele>
        <time>2019-02-28T13:50:36Z</time>
      </trkpt>
      <trkpt lat="43.93017" lon="5.21134">
        <ele>476.46</ele>
        <time>2019-02-28T13:50:53Z</time>
      </trkpt>
      <trkpt lat="43.93015" lon="5.21132">
        <ele>476.59</ele>
        <time>2019-02-28T13:50:55Z</time>
      </trkpt>
      <trkpt lat="43.93004" lon="5.21106">
        <ele>478.16</ele>
        <time>2019-02-28T13:51:10Z</time>
      </trkpt>
      <trkpt lat="43.92985" lon="5.21086">
        <ele>477.83</ele>
        <time>2019-02-28T13:51:29Z</time>
      </trkpt>
      <trkpt lat="43.92964" lon="5.21067">
        <ele>476.74</ele>
        <time>2019-02-28T13:51:45Z</time>
      </trkpt>
      <trkpt lat="43.92944" lon="5.21052">
        <ele>475.97</ele>
        <time>2019-02-28T13:52:03Z</time>
      </trkpt>
      <trkpt lat="43.92927" lon="5.21036">
        <ele>475.09</ele>
        <time>2019-02-28T13:52:18Z</time>
      </trkpt>
      <trkpt lat="43.92904" lon="5.2101">
        <ele>473.63</ele>
        <time>2019-02-28T13:52:38Z</time>
      </trkpt>
      <trkpt lat="43.92899" lon="5.21001">
        <ele>473.68</ele>
        <time>2019-02-28T13:52:44Z</time>
      </trkpt>
      <trkpt lat="43.92889" lon="5.20978">
        <ele>473.31</ele>
        <time>2019-02-28T13:52:58Z</time>
      </trkpt>
      <trkpt lat="43.92878" lon="5.20949">
        <ele>471.75</ele>
        <time>2019-02-28T13:53:15Z</time>
      </trkpt>
      <trkpt lat="43.9287" lon="5.2092">
        <ele>470.68</ele>
        <time>2019-02-28T13:53:33Z</time>
      </trkpt>
      <trkpt lat="43.92858" lon="5.20894">
        <ele>470.31</ele>
        <time>2019-02-28T13:53:48Z</time>
      </trkpt>
      <trkpt lat="43.92851" lon="5.20877">
        <ele>469.77</ele>
        <time>2019-02-28T13:53:59Z</time>
      </trkpt>
      <trkpt lat="43.9283" lon="5.20863">
        <ele>468.44</ele>
        <time>2019-02-28T13:54:15Z</time>
      </trkpt>
      <trkpt lat="43.92811" lon="5.20844">
        <ele>468.14</ele>
        <time>2019-02-28T13:54:34Z</time>
      </trkpt>
      <trkpt lat="43.92805" lon="5.20839">
        <ele>467.51</ele>
        <time>2019-02-28T13:54:43Z</time>
      </trkpt>
    </trkseg>
  </trk>
</gpx>